<?xml version="1.0" encoding="UTF-8" standalone="no" ?>
<gpx xmlns="http://www.topografix.com/GPX/1/1" xmlns:xsi="http://www.w3.org/2001/XMLSchema-instance" xsi:schemaLocation="http://www.topografix.com/GPX/1/1 http://www.topografix.com/GPX/1/1/gpx.xsd" version="1.1" creator="VisuGPX - https://www.visugpx.com">
  <metadata>
    <name>ETAULES - SUZON</name>
    <desc><![CDATA[A partir du plateau d'Etaules, descente, en forêt vers le Suzon, puis remontée avec fort dénivelé.]]></desc>
  </metadata>
  <trk>
    <name><![CDATA[2016-09-13-01]]></name>
    <trkseg>
      <trkpt lat="47.40703" lon="4.94451">
        <ele>546.9</ele>
        <time>2016-09-13T12:07:19Z</time>
      </trkpt>
      <trkpt lat="47.40703" lon="4.94451">
        <ele>546.9</ele>
        <time>2016-09-13T12:07:20Z</time>
      </trkpt>
      <trkpt lat="47.40703" lon="4.94451">
        <ele>546.9</ele>
        <time>2016-09-13T12:07:24Z</time>
      </trkpt>
      <trkpt lat="47.40695" lon="4.94438">
        <ele>538.9</ele>
        <time>2016-09-13T12:11:03Z</time>
      </trkpt>
      <trkpt lat="47.40691" lon="4.94421">
        <ele>536.9</ele>
        <time>2016-09-13T12:11:30Z</time>
      </trkpt>
      <trkpt lat="47.40697" lon="4.9441">
        <ele>533.9</ele>
        <time>2016-09-13T12:11:34Z</time>
      </trkpt>
      <trkpt lat="47.40701" lon="4.94396">
        <ele>531.9</ele>
        <time>2016-09-13T12:11:42Z</time>
      </trkpt>
      <trkpt lat="47.40709" lon="4.94386">
        <ele>524.9</ele>
        <time>2016-09-13T12:11:48Z</time>
      </trkpt>
      <trkpt lat="47.40705" lon="4.94374">
        <ele>527.9</ele>
        <time>2016-09-13T12:11:55Z</time>
      </trkpt>
      <trkpt lat="47.40708" lon="4.94358">
        <ele>524.9</ele>
        <time>2016-09-13T12:12:06Z</time>
      </trkpt>
      <trkpt lat="47.40713" lon="4.94346">
        <ele>521.9</ele>
        <time>2016-09-13T12:12:12Z</time>
      </trkpt>
      <trkpt lat="47.40718" lon="4.94335">
        <ele>525.9</ele>
        <time>2016-09-13T12:12:20Z</time>
      </trkpt>
      <trkpt lat="47.40728" lon="4.9433">
        <ele>522.9</ele>
        <time>2016-09-13T12:12:28Z</time>
      </trkpt>
      <trkpt lat="47.40737" lon="4.94326">
        <ele>526.9</ele>
        <time>2016-09-13T12:12:39Z</time>
      </trkpt>
      <trkpt lat="47.40742" lon="4.94314">
        <ele>522.9</ele>
        <time>2016-09-13T12:12:47Z</time>
      </trkpt>
      <trkpt lat="47.40747" lon="4.94303">
        <ele>521.9</ele>
        <time>2016-09-13T12:12:54Z</time>
      </trkpt>
      <trkpt lat="47.40757" lon="4.94295">
        <ele>527.9</ele>
        <time>2016-09-13T12:13:01Z</time>
      </trkpt>
      <trkpt lat="47.40766" lon="4.94288">
        <ele>527.9</ele>
        <time>2016-09-13T12:13:09Z</time>
      </trkpt>
      <trkpt lat="47.40773" lon="4.9428">
        <ele>529.9</ele>
        <time>2016-09-13T12:13:18Z</time>
      </trkpt>
      <trkpt lat="47.40779" lon="4.94268">
        <ele>525.9</ele>
        <time>2016-09-13T12:13:28Z</time>
      </trkpt>
      <trkpt lat="47.40781" lon="4.94255">
        <ele>530.9</ele>
        <time>2016-09-13T12:13:35Z</time>
      </trkpt>
      <trkpt lat="47.4079" lon="4.94249">
        <ele>527.9</ele>
        <time>2016-09-13T12:14:08Z</time>
      </trkpt>
      <trkpt lat="47.40797" lon="4.94239">
        <ele>525.9</ele>
        <time>2016-09-13T12:14:13Z</time>
      </trkpt>
      <trkpt lat="47.40804" lon="4.94229">
        <ele>515.9</ele>
        <time>2016-09-13T12:14:21Z</time>
      </trkpt>
      <trkpt lat="47.4081" lon="4.94217">
        <ele>513.9</ele>
        <time>2016-09-13T12:14:32Z</time>
      </trkpt>
      <trkpt lat="47.40812" lon="4.94204">
        <ele>517.9</ele>
        <time>2016-09-13T12:14:41Z</time>
      </trkpt>
      <trkpt lat="47.40815" lon="4.94216">
        <ele>517.9</ele>
        <time>2016-09-13T12:14:55Z</time>
      </trkpt>
      <trkpt lat="47.40822" lon="4.94205">
        <ele>518.9</ele>
        <time>2016-09-13T12:15:00Z</time>
      </trkpt>
      <trkpt lat="47.40822" lon="4.94191">
        <ele>517.9</ele>
        <time>2016-09-13T12:15:01Z</time>
      </trkpt>
      <trkpt lat="47.4083" lon="4.94182">
        <ele>515.9</ele>
        <time>2016-09-13T12:15:07Z</time>
      </trkpt>
      <trkpt lat="47.40839" lon="4.94178">
        <ele>514.9</ele>
        <time>2016-09-13T12:15:10Z</time>
      </trkpt>
      <trkpt lat="47.40832" lon="4.94167">
        <ele>519.9</ele>
        <time>2016-09-13T12:15:14Z</time>
      </trkpt>
      <trkpt lat="47.40841" lon="4.94159">
        <ele>519.9</ele>
        <time>2016-09-13T12:15:25Z</time>
      </trkpt>
      <trkpt lat="47.40852" lon="4.94147">
        <ele>521.9</ele>
        <time>2016-09-13T12:15:32Z</time>
      </trkpt>
      <trkpt lat="47.40855" lon="4.94128">
        <ele>515.9</ele>
        <time>2016-09-13T12:15:41Z</time>
      </trkpt>
      <trkpt lat="47.40843" lon="4.94128">
        <ele>513.9</ele>
        <time>2016-09-13T12:15:44Z</time>
      </trkpt>
      <trkpt lat="47.40841" lon="4.9411">
        <ele>511.9</ele>
        <time>2016-09-13T12:15:51Z</time>
      </trkpt>
      <trkpt lat="47.40836" lon="4.94095">
        <ele>510.9</ele>
        <time>2016-09-13T12:15:53Z</time>
      </trkpt>
      <trkpt lat="47.40842" lon="4.94085">
        <ele>513.9</ele>
        <time>2016-09-13T12:15:57Z</time>
      </trkpt>
      <trkpt lat="47.40832" lon="4.94078">
        <ele>508.9</ele>
        <time>2016-09-13T12:16:06Z</time>
      </trkpt>
      <trkpt lat="47.40841" lon="4.94068">
        <ele>518.9</ele>
        <time>2016-09-13T12:16:16Z</time>
      </trkpt>
      <trkpt lat="47.40844" lon="4.94053">
        <ele>530.9</ele>
        <time>2016-09-13T12:16:28Z</time>
      </trkpt>
      <trkpt lat="47.40847" lon="4.94039">
        <ele>532.9</ele>
        <time>2016-09-13T12:16:35Z</time>
      </trkpt>
      <trkpt lat="47.40837" lon="4.94025">
        <ele>529.9</ele>
        <time>2016-09-13T12:16:39Z</time>
      </trkpt>
      <trkpt lat="47.4084" lon="4.94009">
        <ele>523.9</ele>
        <time>2016-09-13T12:17:00Z</time>
      </trkpt>
      <trkpt lat="47.40842" lon="4.93994">
        <ele>527.9</ele>
        <time>2016-09-13T12:17:12Z</time>
      </trkpt>
      <trkpt lat="47.40852" lon="4.93982">
        <ele>526.9</ele>
        <time>2016-09-13T12:17:19Z</time>
      </trkpt>
      <trkpt lat="47.4085" lon="4.93963">
        <ele>527.9</ele>
        <time>2016-09-13T12:17:25Z</time>
      </trkpt>
      <trkpt lat="47.40853" lon="4.9395">
        <ele>527.9</ele>
        <time>2016-09-13T12:17:35Z</time>
      </trkpt>
      <trkpt lat="47.40854" lon="4.93935">
        <ele>523.9</ele>
        <time>2016-09-13T12:17:40Z</time>
      </trkpt>
      <trkpt lat="47.40858" lon="4.93922">
        <ele>525.9</ele>
        <time>2016-09-13T12:17:45Z</time>
      </trkpt>
      <trkpt lat="47.40861" lon="4.93908">
        <ele>522.9</ele>
        <time>2016-09-13T12:17:49Z</time>
      </trkpt>
      <trkpt lat="47.40852" lon="4.93906">
        <ele>532.9</ele>
        <time>2016-09-13T12:17:57Z</time>
      </trkpt>
      <trkpt lat="47.40861" lon="4.939">
        <ele>529.9</ele>
        <time>2016-09-13T12:18:04Z</time>
      </trkpt>
      <trkpt lat="47.40866" lon="4.93889">
        <ele>532.9</ele>
        <time>2016-09-13T12:18:10Z</time>
      </trkpt>
      <trkpt lat="47.40874" lon="4.9388">
        <ele>532.9</ele>
        <time>2016-09-13T12:18:18Z</time>
      </trkpt>
      <trkpt lat="47.40873" lon="4.93866">
        <ele>532.9</ele>
        <time>2016-09-13T12:18:23Z</time>
      </trkpt>
      <trkpt lat="47.41224" lon="4.92756">
        <ele>524.9</ele>
        <time>2016-09-13T12:41:07Z</time>
      </trkpt>
      <trkpt lat="47.41204" lon="4.92763">
        <ele>496.7</ele>
        <time>2016-09-13T12:41:11Z</time>
      </trkpt>
      <trkpt lat="47.41212" lon="4.92729">
        <ele>496.2</ele>
        <time>2016-09-13T12:41:17Z</time>
      </trkpt>
      <trkpt lat="47.41204" lon="4.92735">
        <ele>496.6</ele>
        <time>2016-09-13T12:41:25Z</time>
      </trkpt>
      <trkpt lat="47.41198" lon="4.92723">
        <ele>496.8</ele>
        <time>2016-09-13T12:41:33Z</time>
      </trkpt>
      <trkpt lat="47.4119" lon="4.92717">
        <ele>497.2</ele>
        <time>2016-09-13T12:41:42Z</time>
      </trkpt>
      <trkpt lat="47.41182" lon="4.9271">
        <ele>497.7</ele>
        <time>2016-09-13T12:41:51Z</time>
      </trkpt>
      <trkpt lat="47.41175" lon="4.92701">
        <ele>498.1</ele>
        <time>2016-09-13T12:42:00Z</time>
      </trkpt>
      <trkpt lat="47.41167" lon="4.92694">
        <ele>498.7</ele>
        <time>2016-09-13T12:42:08Z</time>
      </trkpt>
      <trkpt lat="47.41159" lon="4.92686">
        <ele>499</ele>
        <time>2016-09-13T12:42:16Z</time>
      </trkpt>
      <trkpt lat="47.41151" lon="4.92678">
        <ele>499.4</ele>
        <time>2016-09-13T12:42:23Z</time>
      </trkpt>
      <trkpt lat="47.41145" lon="4.92667">
        <ele>499.8</ele>
        <time>2016-09-13T12:42:32Z</time>
      </trkpt>
      <trkpt lat="47.4114" lon="4.92656">
        <ele>499.8</ele>
        <time>2016-09-13T12:42:39Z</time>
      </trkpt>
      <trkpt lat="47.41135" lon="4.92645">
        <ele>499.9</ele>
        <time>2016-09-13T12:42:47Z</time>
      </trkpt>
      <trkpt lat="47.41128" lon="4.92633">
        <ele>500.1</ele>
        <time>2016-09-13T12:42:55Z</time>
      </trkpt>
      <trkpt lat="47.41121" lon="4.92624">
        <ele>500.5</ele>
        <time>2016-09-13T12:43:02Z</time>
      </trkpt>
      <trkpt lat="47.41115" lon="4.92614">
        <ele>500.8</ele>
        <time>2016-09-13T12:43:11Z</time>
      </trkpt>
      <trkpt lat="47.41108" lon="4.92606">
        <ele>501.2</ele>
        <time>2016-09-13T12:43:20Z</time>
      </trkpt>
      <trkpt lat="47.411" lon="4.92597">
        <ele>501.7</ele>
        <time>2016-09-13T12:43:29Z</time>
      </trkpt>
      <trkpt lat="47.41094" lon="4.92586">
        <ele>502.2</ele>
        <time>2016-09-13T12:43:37Z</time>
      </trkpt>
      <trkpt lat="47.41087" lon="4.92576">
        <ele>502.9</ele>
        <time>2016-09-13T12:43:45Z</time>
      </trkpt>
      <trkpt lat="47.41081" lon="4.92567">
        <ele>503.6</ele>
        <time>2016-09-13T12:43:54Z</time>
      </trkpt>
      <trkpt lat="47.41072" lon="4.92559">
        <ele>504.5</ele>
        <time>2016-09-13T12:44:02Z</time>
      </trkpt>
      <trkpt lat="47.41064" lon="4.92552">
        <ele>505.3</ele>
        <time>2016-09-13T12:44:10Z</time>
      </trkpt>
      <trkpt lat="47.41056" lon="4.92543">
        <ele>506.2</ele>
        <time>2016-09-13T12:44:18Z</time>
      </trkpt>
      <trkpt lat="47.41048" lon="4.92534">
        <ele>507.2</ele>
        <time>2016-09-13T12:44:26Z</time>
      </trkpt>
      <trkpt lat="47.41041" lon="4.92525">
        <ele>508.2</ele>
        <time>2016-09-13T12:44:36Z</time>
      </trkpt>
      <trkpt lat="47.41033" lon="4.92516">
        <ele>509.2</ele>
        <time>2016-09-13T12:44:44Z</time>
      </trkpt>
      <trkpt lat="47.41026" lon="4.92507">
        <ele>510.2</ele>
        <time>2016-09-13T12:44:53Z</time>
      </trkpt>
      <trkpt lat="47.41019" lon="4.92498">
        <ele>511.3</ele>
        <time>2016-09-13T12:45:03Z</time>
      </trkpt>
      <trkpt lat="47.4101" lon="4.9249">
        <ele>512.2</ele>
        <time>2016-09-13T12:45:12Z</time>
      </trkpt>
      <trkpt lat="47.41005" lon="4.92477">
        <ele>512.9</ele>
        <time>2016-09-13T12:45:20Z</time>
      </trkpt>
      <trkpt lat="47.40998" lon="4.9247">
        <ele>513.3</ele>
        <time>2016-09-13T12:45:28Z</time>
      </trkpt>
      <trkpt lat="47.40991" lon="4.92458">
        <ele>513</ele>
        <time>2016-09-13T12:45:37Z</time>
      </trkpt>
      <trkpt lat="47.40984" lon="4.92449">
        <ele>512.8</ele>
        <time>2016-09-13T12:45:46Z</time>
      </trkpt>
      <trkpt lat="47.40977" lon="4.92439">
        <ele>512.4</ele>
        <time>2016-09-13T12:45:55Z</time>
      </trkpt>
      <trkpt lat="47.4097" lon="4.9243">
        <ele>512.1</ele>
        <time>2016-09-13T12:46:04Z</time>
      </trkpt>
      <trkpt lat="47.40963" lon="4.92419">
        <ele>511.8</ele>
        <time>2016-09-13T12:46:13Z</time>
      </trkpt>
      <trkpt lat="47.40957" lon="4.92409">
        <ele>511.2</ele>
        <time>2016-09-13T12:46:21Z</time>
      </trkpt>
      <trkpt lat="47.4095" lon="4.92399">
        <ele>510.5</ele>
        <time>2016-09-13T12:46:29Z</time>
      </trkpt>
      <trkpt lat="47.40944" lon="4.92389">
        <ele>509.8</ele>
        <time>2016-09-13T12:46:37Z</time>
      </trkpt>
      <trkpt lat="47.40937" lon="4.9238">
        <ele>509.2</ele>
        <time>2016-09-13T12:46:46Z</time>
      </trkpt>
      <trkpt lat="47.40931" lon="4.92369">
        <ele>508.6</ele>
        <time>2016-09-13T12:46:55Z</time>
      </trkpt>
      <trkpt lat="47.40923" lon="4.92362">
        <ele>508</ele>
        <time>2016-09-13T12:47:03Z</time>
      </trkpt>
      <trkpt lat="47.40917" lon="4.92352">
        <ele>507.5</ele>
        <time>2016-09-13T12:47:11Z</time>
      </trkpt>
      <trkpt lat="47.40911" lon="4.92342">
        <ele>507.2</ele>
        <time>2016-09-13T12:47:18Z</time>
      </trkpt>
      <trkpt lat="47.40906" lon="4.9233">
        <ele>507.1</ele>
        <time>2016-09-13T12:47:26Z</time>
      </trkpt>
      <trkpt lat="47.40899" lon="4.92319">
        <ele>507.4</ele>
        <time>2016-09-13T12:47:34Z</time>
      </trkpt>
      <trkpt lat="47.40895" lon="4.92307">
        <ele>507.6</ele>
        <time>2016-09-13T12:47:42Z</time>
      </trkpt>
      <trkpt lat="47.40889" lon="4.92297">
        <ele>507.9</ele>
        <time>2016-09-13T12:47:49Z</time>
      </trkpt>
      <trkpt lat="47.40883" lon="4.92286">
        <ele>508.3</ele>
        <time>2016-09-13T12:47:57Z</time>
      </trkpt>
      <trkpt lat="47.40877" lon="4.92277">
        <ele>508.8</ele>
        <time>2016-09-13T12:48:05Z</time>
      </trkpt>
      <trkpt lat="47.40871" lon="4.92266">
        <ele>509.3</ele>
        <time>2016-09-13T12:48:13Z</time>
      </trkpt>
      <trkpt lat="47.40866" lon="4.92253">
        <ele>510</ele>
        <time>2016-09-13T12:48:22Z</time>
      </trkpt>
      <trkpt lat="47.4086" lon="4.92243">
        <ele>510.7</ele>
        <time>2016-09-13T12:48:29Z</time>
      </trkpt>
      <trkpt lat="47.40853" lon="4.92232">
        <ele>511.5</ele>
        <time>2016-09-13T12:48:39Z</time>
      </trkpt>
      <trkpt lat="47.40847" lon="4.92222">
        <ele>512.3</ele>
        <time>2016-09-13T12:48:48Z</time>
      </trkpt>
      <trkpt lat="47.40844" lon="4.92208">
        <ele>513</ele>
        <time>2016-09-13T12:48:56Z</time>
      </trkpt>
      <trkpt lat="47.40839" lon="4.92196">
        <ele>513.7</ele>
        <time>2016-09-13T12:49:04Z</time>
      </trkpt>
      <trkpt lat="47.40835" lon="4.92183">
        <ele>514.3</ele>
        <time>2016-09-13T12:49:13Z</time>
      </trkpt>
      <trkpt lat="47.40828" lon="4.92172">
        <ele>514.4</ele>
        <time>2016-09-13T12:49:22Z</time>
      </trkpt>
      <trkpt lat="47.40826" lon="4.92158">
        <ele>513.9</ele>
        <time>2016-09-13T12:49:30Z</time>
      </trkpt>
      <trkpt lat="47.4082" lon="4.92146">
        <ele>513.1</ele>
        <time>2016-09-13T12:49:39Z</time>
      </trkpt>
      <trkpt lat="47.40812" lon="4.92141">
        <ele>512.3</ele>
        <time>2016-09-13T12:49:49Z</time>
      </trkpt>
      <trkpt lat="47.40802" lon="4.92146">
        <ele>511.8</ele>
        <time>2016-09-13T12:49:57Z</time>
      </trkpt>
      <trkpt lat="47.40795" lon="4.92155">
        <ele>511.4</ele>
        <time>2016-09-13T12:50:06Z</time>
      </trkpt>
      <trkpt lat="47.40787" lon="4.92164">
        <ele>511</ele>
        <time>2016-09-13T12:50:15Z</time>
      </trkpt>
      <trkpt lat="47.4078" lon="4.92172">
        <ele>510.4</ele>
        <time>2016-09-13T12:50:24Z</time>
      </trkpt>
      <trkpt lat="47.40772" lon="4.9218">
        <ele>509.6</ele>
        <time>2016-09-13T12:50:34Z</time>
      </trkpt>
      <trkpt lat="47.40764" lon="4.92189">
        <ele>508.8</ele>
        <time>2016-09-13T12:50:42Z</time>
      </trkpt>
      <trkpt lat="47.40756" lon="4.92195">
        <ele>508.1</ele>
        <time>2016-09-13T12:50:50Z</time>
      </trkpt>
      <trkpt lat="47.40748" lon="4.92202">
        <ele>507.4</ele>
        <time>2016-09-13T12:52:53Z</time>
      </trkpt>
      <trkpt lat="47.4074" lon="4.9221">
        <ele>506.9</ele>
        <time>2016-09-13T12:53:01Z</time>
      </trkpt>
      <trkpt lat="47.40733" lon="4.9222">
        <ele>506.4</ele>
        <time>2016-09-13T12:53:09Z</time>
      </trkpt>
      <trkpt lat="47.40727" lon="4.9223">
        <ele>505.9</ele>
        <time>2016-09-13T12:53:17Z</time>
      </trkpt>
      <trkpt lat="47.40722" lon="4.92242">
        <ele>505.4</ele>
        <time>2016-09-13T12:53:26Z</time>
      </trkpt>
      <trkpt lat="47.40716" lon="4.92253">
        <ele>505</ele>
        <time>2016-09-13T12:53:32Z</time>
      </trkpt>
      <trkpt lat="47.4071" lon="4.92262">
        <ele>504.5</ele>
        <time>2016-09-13T12:53:43Z</time>
      </trkpt>
      <trkpt lat="47.40702" lon="4.9227">
        <ele>504</ele>
        <time>2016-09-13T12:53:50Z</time>
      </trkpt>
      <trkpt lat="47.40693" lon="4.92274">
        <ele>503.5</ele>
        <time>2016-09-13T12:54:01Z</time>
      </trkpt>
      <trkpt lat="47.40684" lon="4.92269">
        <ele>503</ele>
        <time>2016-09-13T12:54:11Z</time>
      </trkpt>
      <trkpt lat="47.40678" lon="4.92258">
        <ele>502.7</ele>
        <time>2016-09-13T12:54:18Z</time>
      </trkpt>
      <trkpt lat="47.40673" lon="4.92246">
        <ele>502.4</ele>
        <time>2016-09-13T12:54:27Z</time>
      </trkpt>
      <trkpt lat="47.40668" lon="4.92235">
        <ele>502.2</ele>
        <time>2016-09-13T12:54:36Z</time>
      </trkpt>
      <trkpt lat="47.40661" lon="4.92224">
        <ele>502.2</ele>
        <time>2016-09-13T12:54:44Z</time>
      </trkpt>
      <trkpt lat="47.40656" lon="4.92212">
        <ele>502.3</ele>
        <time>2016-09-13T12:54:51Z</time>
      </trkpt>
      <trkpt lat="47.40651" lon="4.92199">
        <ele>502.3</ele>
        <time>2016-09-13T12:55:01Z</time>
      </trkpt>
      <trkpt lat="47.40648" lon="4.92185">
        <ele>502.3</ele>
        <time>2016-09-13T12:55:09Z</time>
      </trkpt>
      <trkpt lat="47.40642" lon="4.92173">
        <ele>502.1</ele>
        <time>2016-09-13T12:55:17Z</time>
      </trkpt>
      <trkpt lat="47.40636" lon="4.92161">
        <ele>501.9</ele>
        <time>2016-09-13T12:55:25Z</time>
      </trkpt>
      <trkpt lat="47.40631" lon="4.92151">
        <ele>501.7</ele>
        <time>2016-09-13T12:55:32Z</time>
      </trkpt>
      <trkpt lat="47.40625" lon="4.92139">
        <ele>501.5</ele>
        <time>2016-09-13T12:55:41Z</time>
      </trkpt>
      <trkpt lat="47.40618" lon="4.9213">
        <ele>501.2</ele>
        <time>2016-09-13T12:55:48Z</time>
      </trkpt>
      <trkpt lat="47.40614" lon="4.92117">
        <ele>500.9</ele>
        <time>2016-09-13T12:55:58Z</time>
      </trkpt>
      <trkpt lat="47.40608" lon="4.92106">
        <ele>500.6</ele>
        <time>2016-09-13T12:56:05Z</time>
      </trkpt>
      <trkpt lat="47.40603" lon="4.92094">
        <ele>500.3</ele>
        <time>2016-09-13T12:56:12Z</time>
      </trkpt>
      <trkpt lat="47.40598" lon="4.92081">
        <ele>499.9</ele>
        <time>2016-09-13T12:56:21Z</time>
      </trkpt>
      <trkpt lat="47.40593" lon="4.92069">
        <ele>499.6</ele>
        <time>2016-09-13T12:56:28Z</time>
      </trkpt>
      <trkpt lat="47.40588" lon="4.92056">
        <ele>499.3</ele>
        <time>2016-09-13T12:56:36Z</time>
      </trkpt>
      <trkpt lat="47.40583" lon="4.92044">
        <ele>499</ele>
        <time>2016-09-13T12:56:46Z</time>
      </trkpt>
      <trkpt lat="47.40575" lon="4.92037">
        <ele>499</ele>
        <time>2016-09-13T12:56:56Z</time>
      </trkpt>
      <trkpt lat="47.40579" lon="4.92024">
        <ele>499</ele>
        <time>2016-09-13T12:57:57Z</time>
      </trkpt>
      <trkpt lat="47.40585" lon="4.92013">
        <ele>499.1</ele>
        <time>2016-09-13T12:58:10Z</time>
      </trkpt>
      <trkpt lat="47.40593" lon="4.92005">
        <ele>499.7</ele>
        <time>2016-09-13T12:58:23Z</time>
      </trkpt>
      <trkpt lat="47.40597" lon="4.91993">
        <ele>500.1</ele>
        <time>2016-09-13T12:58:40Z</time>
      </trkpt>
      <trkpt lat="47.40602" lon="4.91981">
        <ele>500.5</ele>
        <time>2016-09-13T12:58:53Z</time>
      </trkpt>
      <trkpt lat="47.40602" lon="4.91967">
        <ele>500.7</ele>
        <time>2016-09-13T12:59:07Z</time>
      </trkpt>
      <trkpt lat="47.40599" lon="4.91952">
        <ele>500.6</ele>
        <time>2016-09-13T12:59:21Z</time>
      </trkpt>
      <trkpt lat="47.40598" lon="4.91937">
        <ele>500.7</ele>
        <time>2016-09-13T12:59:31Z</time>
      </trkpt>
      <trkpt lat="47.40598" lon="4.91923">
        <ele>500.8</ele>
        <time>2016-09-13T12:59:42Z</time>
      </trkpt>
      <trkpt lat="47.40592" lon="4.91911">
        <ele>500.5</ele>
        <time>2016-09-13T12:59:50Z</time>
      </trkpt>
      <trkpt lat="47.4059" lon="4.91899">
        <ele>500.4</ele>
        <time>2016-09-13T12:59:58Z</time>
      </trkpt>
      <trkpt lat="47.40591" lon="4.91883">
        <ele>500.4</ele>
        <time>2016-09-13T13:00:08Z</time>
      </trkpt>
      <trkpt lat="47.40587" lon="4.91868">
        <ele>500.2</ele>
        <time>2016-09-13T13:00:15Z</time>
      </trkpt>
      <trkpt lat="47.40588" lon="4.91853">
        <ele>500.2</ele>
        <time>2016-09-13T13:00:24Z</time>
      </trkpt>
      <trkpt lat="47.40596" lon="4.91845">
        <ele>500.5</ele>
        <time>2016-09-13T13:00:30Z</time>
      </trkpt>
      <trkpt lat="47.40591" lon="4.91832">
        <ele>500.2</ele>
        <time>2016-09-13T13:00:35Z</time>
      </trkpt>
      <trkpt lat="47.40587" lon="4.91819">
        <ele>499.5</ele>
        <time>2016-09-13T13:00:43Z</time>
      </trkpt>
      <trkpt lat="47.40589" lon="4.91806">
        <ele>499</ele>
        <time>2016-09-13T13:00:53Z</time>
      </trkpt>
      <trkpt lat="47.40595" lon="4.91794">
        <ele>498.7</ele>
        <time>2016-09-13T13:01:05Z</time>
      </trkpt>
      <trkpt lat="47.40594" lon="4.9178">
        <ele>498.2</ele>
        <time>2016-09-13T13:01:14Z</time>
      </trkpt>
      <trkpt lat="47.40589" lon="4.91769">
        <ele>497.3</ele>
        <time>2016-09-13T13:01:26Z</time>
      </trkpt>
      <trkpt lat="47.40584" lon="4.91756">
        <ele>496.3</ele>
        <time>2016-09-13T13:01:33Z</time>
      </trkpt>
      <trkpt lat="47.40587" lon="4.91743">
        <ele>495.5</ele>
        <time>2016-09-13T13:01:42Z</time>
      </trkpt>
      <trkpt lat="47.40588" lon="4.91729">
        <ele>494.1</ele>
        <time>2016-09-13T13:01:55Z</time>
      </trkpt>
      <trkpt lat="47.40592" lon="4.91717">
        <ele>493</ele>
        <time>2016-09-13T13:03:19Z</time>
      </trkpt>
      <trkpt lat="47.40603" lon="4.91719">
        <ele>494.1</ele>
        <time>2016-09-13T13:04:15Z</time>
      </trkpt>
      <trkpt lat="47.40612" lon="4.91709">
        <ele>493.6</ele>
        <time>2016-09-13T13:04:26Z</time>
      </trkpt>
      <trkpt lat="47.4062" lon="4.91703">
        <ele>493.4</ele>
        <time>2016-09-13T13:04:34Z</time>
      </trkpt>
      <trkpt lat="47.40628" lon="4.91698">
        <ele>493.3</ele>
        <time>2016-09-13T13:04:41Z</time>
      </trkpt>
      <trkpt lat="47.40636" lon="4.91691">
        <ele>493.2</ele>
        <time>2016-09-13T13:04:50Z</time>
      </trkpt>
      <trkpt lat="47.40645" lon="4.91692">
        <ele>493.8</ele>
        <time>2016-09-13T13:04:56Z</time>
      </trkpt>
      <trkpt lat="47.40654" lon="4.91688">
        <ele>493.9</ele>
        <time>2016-09-13T13:05:05Z</time>
      </trkpt>
      <trkpt lat="47.40661" lon="4.9168">
        <ele>493.4</ele>
        <time>2016-09-13T13:05:18Z</time>
      </trkpt>
      <trkpt lat="47.40669" lon="4.91672">
        <ele>492.7</ele>
        <time>2016-09-13T13:05:28Z</time>
      </trkpt>
      <trkpt lat="47.40678" lon="4.91665">
        <ele>492.2</ele>
        <time>2016-09-13T13:05:37Z</time>
      </trkpt>
      <trkpt lat="47.40688" lon="4.91663">
        <ele>492.7</ele>
        <time>2016-09-13T13:05:46Z</time>
      </trkpt>
      <trkpt lat="47.40698" lon="4.91661">
        <ele>492.7</ele>
        <time>2016-09-13T13:05:55Z</time>
      </trkpt>
      <trkpt lat="47.40707" lon="4.91658">
        <ele>492.7</ele>
        <time>2016-09-13T13:06:14Z</time>
      </trkpt>
      <trkpt lat="47.40715" lon="4.9165">
        <ele>491.3</ele>
        <time>2016-09-13T13:06:24Z</time>
      </trkpt>
      <trkpt lat="47.40723" lon="4.91645">
        <ele>490.6</ele>
        <time>2016-09-13T13:06:34Z</time>
      </trkpt>
      <trkpt lat="47.40732" lon="4.91641">
        <ele>490.1</ele>
        <time>2016-09-13T13:06:41Z</time>
      </trkpt>
      <trkpt lat="47.40741" lon="4.91636">
        <ele>489.3</ele>
        <time>2016-09-13T13:06:51Z</time>
      </trkpt>
      <trkpt lat="47.40749" lon="4.91627">
        <ele>487.6</ele>
        <time>2016-09-13T13:07:12Z</time>
      </trkpt>
      <trkpt lat="47.40758" lon="4.91624">
        <ele>486.6</ele>
        <time>2016-09-13T13:07:22Z</time>
      </trkpt>
      <trkpt lat="47.40767" lon="4.91624">
        <ele>486.5</ele>
        <time>2016-09-13T13:07:35Z</time>
      </trkpt>
      <trkpt lat="47.40777" lon="4.91623">
        <ele>486.1</ele>
        <time>2016-09-13T13:07:46Z</time>
      </trkpt>
      <trkpt lat="47.40786" lon="4.91624">
        <ele>486.4</ele>
        <time>2016-09-13T13:08:00Z</time>
      </trkpt>
      <trkpt lat="47.40795" lon="4.91623">
        <ele>486</ele>
        <time>2016-09-13T13:08:10Z</time>
      </trkpt>
      <trkpt lat="47.40805" lon="4.91624">
        <ele>486.3</ele>
        <time>2016-09-13T13:08:23Z</time>
      </trkpt>
      <trkpt lat="47.40816" lon="4.91624">
        <ele>486.2</ele>
        <time>2016-09-13T13:08:32Z</time>
      </trkpt>
      <trkpt lat="47.40825" lon="4.91625">
        <ele>486.2</ele>
        <time>2016-09-13T13:08:38Z</time>
      </trkpt>
      <trkpt lat="47.40834" lon="4.91624">
        <ele>486.1</ele>
        <time>2016-09-13T13:08:47Z</time>
      </trkpt>
      <trkpt lat="47.40843" lon="4.91618">
        <ele>483.6</ele>
        <time>2016-09-13T13:08:56Z</time>
      </trkpt>
      <trkpt lat="47.40852" lon="4.91617">
        <ele>482.4</ele>
        <time>2016-09-13T13:09:08Z</time>
      </trkpt>
      <trkpt lat="47.40861" lon="4.91619">
        <ele>482.4</ele>
        <time>2016-09-13T13:09:23Z</time>
      </trkpt>
      <trkpt lat="47.4087" lon="4.91619">
        <ele>481.7</ele>
        <time>2016-09-13T13:09:33Z</time>
      </trkpt>
      <trkpt lat="47.40879" lon="4.91613">
        <ele>479.5</ele>
        <time>2016-09-13T13:09:47Z</time>
      </trkpt>
      <trkpt lat="47.4089" lon="4.91611">
        <ele>477.8</ele>
        <time>2016-09-13T13:12:08Z</time>
      </trkpt>
      <trkpt lat="47.40899" lon="4.9161">
        <ele>476.6</ele>
        <time>2016-09-13T13:12:16Z</time>
      </trkpt>
      <trkpt lat="47.4091" lon="4.91609">
        <ele>475.7</ele>
        <time>2016-09-13T13:12:28Z</time>
      </trkpt>
      <trkpt lat="47.40919" lon="4.91607">
        <ele>473.5</ele>
        <time>2016-09-13T13:12:37Z</time>
      </trkpt>
      <trkpt lat="47.40929" lon="4.91607">
        <ele>472</ele>
        <time>2016-09-13T13:12:46Z</time>
      </trkpt>
      <trkpt lat="47.40938" lon="4.91611">
        <ele>471.5</ele>
        <time>2016-09-13T13:13:06Z</time>
      </trkpt>
      <trkpt lat="47.40947" lon="4.91613">
        <ele>470.7</ele>
        <time>2016-09-13T13:13:15Z</time>
      </trkpt>
      <trkpt lat="47.40956" lon="4.91616">
        <ele>469.8</ele>
        <time>2016-09-13T13:13:24Z</time>
      </trkpt>
      <trkpt lat="47.40964" lon="4.91622">
        <ele>469.9</ele>
        <time>2016-09-13T13:13:32Z</time>
      </trkpt>
      <trkpt lat="47.40973" lon="4.91623">
        <ele>468.6</ele>
        <time>2016-09-13T13:13:40Z</time>
      </trkpt>
      <trkpt lat="47.40979" lon="4.91633">
        <ele>470.8</ele>
        <time>2016-09-13T13:13:50Z</time>
      </trkpt>
      <trkpt lat="47.40988" lon="4.91627">
        <ele>467.2</ele>
        <time>2016-09-13T13:14:03Z</time>
      </trkpt>
      <trkpt lat="47.40997" lon="4.91625">
        <ele>465</ele>
        <time>2016-09-13T13:14:11Z</time>
      </trkpt>
      <trkpt lat="47.41007" lon="4.91626">
        <ele>463.7</ele>
        <time>2016-09-13T13:14:21Z</time>
      </trkpt>
      <trkpt lat="47.41017" lon="4.91632">
        <ele>463.9</ele>
        <time>2016-09-13T13:14:30Z</time>
      </trkpt>
      <trkpt lat="47.41025" lon="4.91638">
        <ele>464.7</ele>
        <time>2016-09-13T13:14:41Z</time>
      </trkpt>
      <trkpt lat="47.4103" lon="4.9165">
        <ele>467.7</ele>
        <time>2016-09-13T13:14:49Z</time>
      </trkpt>
      <trkpt lat="47.41034" lon="4.91662">
        <ele>470.9</ele>
        <time>2016-09-13T13:15:02Z</time>
      </trkpt>
      <trkpt lat="47.4104" lon="4.91673">
        <ele>473</ele>
        <time>2016-09-13T13:15:13Z</time>
      </trkpt>
      <trkpt lat="47.41046" lon="4.91684">
        <ele>475.3</ele>
        <time>2016-09-13T13:15:23Z</time>
      </trkpt>
      <trkpt lat="47.41055" lon="4.91689">
        <ele>475.4</ele>
        <time>2016-09-13T13:15:30Z</time>
      </trkpt>
      <trkpt lat="47.41063" lon="4.91696">
        <ele>476</ele>
        <time>2016-09-13T13:15:42Z</time>
      </trkpt>
      <trkpt lat="47.4107" lon="4.91705">
        <ele>477.6</ele>
        <time>2016-09-13T13:15:49Z</time>
      </trkpt>
      <trkpt lat="47.4108" lon="4.91709">
        <ele>477.5</ele>
        <time>2016-09-13T13:15:58Z</time>
      </trkpt>
      <trkpt lat="47.41089" lon="4.91712">
        <ele>477.8</ele>
        <time>2016-09-13T13:16:06Z</time>
      </trkpt>
      <trkpt lat="47.41097" lon="4.91719">
        <ele>480.1</ele>
        <time>2016-09-13T13:16:21Z</time>
      </trkpt>
      <trkpt lat="47.41105" lon="4.91728">
        <ele>482.8</ele>
        <time>2016-09-13T13:16:28Z</time>
      </trkpt>
      <trkpt lat="47.41112" lon="4.91735">
        <ele>484.8</ele>
        <time>2016-09-13T13:16:40Z</time>
      </trkpt>
      <trkpt lat="47.41121" lon="4.91745">
        <ele>487.5</ele>
        <time>2016-09-13T13:16:47Z</time>
      </trkpt>
      <trkpt lat="47.41129" lon="4.91752">
        <ele>489.7</ele>
        <time>2016-09-13T13:16:54Z</time>
      </trkpt>
      <trkpt lat="47.41136" lon="4.91761">
        <ele>491</ele>
        <time>2016-09-13T13:17:03Z</time>
      </trkpt>
      <trkpt lat="47.41146" lon="4.91764">
        <ele>491.6</ele>
        <time>2016-09-13T13:17:12Z</time>
      </trkpt>
      <trkpt lat="47.41155" lon="4.91764">
        <ele>491.5</ele>
        <time>2016-09-13T13:17:22Z</time>
      </trkpt>
      <trkpt lat="47.41164" lon="4.91765">
        <ele>491.7</ele>
        <time>2016-09-13T13:17:34Z</time>
      </trkpt>
      <trkpt lat="47.41173" lon="4.91767">
        <ele>491.8</ele>
        <time>2016-09-13T13:17:44Z</time>
      </trkpt>
      <trkpt lat="47.41184" lon="4.91768">
        <ele>491.5</ele>
        <time>2016-09-13T13:18:04Z</time>
      </trkpt>
      <trkpt lat="47.41193" lon="4.91764">
        <ele>490.5</ele>
        <time>2016-09-13T13:18:09Z</time>
      </trkpt>
      <trkpt lat="47.41201" lon="4.91756">
        <ele>489.3</ele>
        <time>2016-09-13T13:18:17Z</time>
      </trkpt>
      <trkpt lat="47.4121" lon="4.9175">
        <ele>488.5</ele>
        <time>2016-09-13T13:18:24Z</time>
      </trkpt>
      <trkpt lat="47.41217" lon="4.91742">
        <ele>485.7</ele>
        <time>2016-09-13T13:18:32Z</time>
      </trkpt>
      <trkpt lat="47.41223" lon="4.91732">
        <ele>482.9</ele>
        <time>2016-09-13T13:18:39Z</time>
      </trkpt>
      <trkpt lat="47.4123" lon="4.91721">
        <ele>479.9</ele>
        <time>2016-09-13T13:18:48Z</time>
      </trkpt>
      <trkpt lat="47.4124" lon="4.91721">
        <ele>479.3</ele>
        <time>2016-09-13T13:19:00Z</time>
      </trkpt>
      <trkpt lat="47.41249" lon="4.91719">
        <ele>478.8</ele>
        <time>2016-09-13T13:19:11Z</time>
      </trkpt>
      <trkpt lat="47.41256" lon="4.91709">
        <ele>475.5</ele>
        <time>2016-09-13T13:19:20Z</time>
      </trkpt>
      <trkpt lat="47.41265" lon="4.91703">
        <ele>473.5</ele>
        <time>2016-09-13T13:19:29Z</time>
      </trkpt>
      <trkpt lat="47.41276" lon="4.91699">
        <ele>471.5</ele>
        <time>2016-09-13T13:19:38Z</time>
      </trkpt>
      <trkpt lat="47.41285" lon="4.91695">
        <ele>470</ele>
        <time>2016-09-13T13:19:49Z</time>
      </trkpt>
      <trkpt lat="47.41294" lon="4.91692">
        <ele>468.8</ele>
        <time>2016-09-13T13:19:58Z</time>
      </trkpt>
      <trkpt lat="47.41303" lon="4.91689">
        <ele>467.7</ele>
        <time>2016-09-13T13:20:37Z</time>
      </trkpt>
      <trkpt lat="47.41311" lon="4.91682">
        <ele>466</ele>
        <time>2016-09-13T13:20:44Z</time>
      </trkpt>
      <trkpt lat="47.4132" lon="4.91681">
        <ele>465.2</ele>
        <time>2016-09-13T13:20:54Z</time>
      </trkpt>
      <trkpt lat="47.41329" lon="4.91679">
        <ele>464.3</ele>
        <time>2016-09-13T13:21:03Z</time>
      </trkpt>
      <trkpt lat="47.41339" lon="4.91676">
        <ele>462.5</ele>
        <time>2016-09-13T13:21:09Z</time>
      </trkpt>
      <trkpt lat="47.41348" lon="4.91673">
        <ele>459.8</ele>
        <time>2016-09-13T13:21:17Z</time>
      </trkpt>
      <trkpt lat="47.41358" lon="4.91673">
        <ele>458.1</ele>
        <time>2016-09-13T13:21:25Z</time>
      </trkpt>
      <trkpt lat="47.41367" lon="4.91675">
        <ele>456.4</ele>
        <time>2016-09-13T13:21:34Z</time>
      </trkpt>
      <trkpt lat="47.41377" lon="4.91674">
        <ele>454.2</ele>
        <time>2016-09-13T13:21:49Z</time>
      </trkpt>
      <trkpt lat="47.41387" lon="4.91678">
        <ele>452.8</ele>
        <time>2016-09-13T13:21:59Z</time>
      </trkpt>
      <trkpt lat="47.41396" lon="4.91674">
        <ele>450.5</ele>
        <time>2016-09-13T13:22:06Z</time>
      </trkpt>
      <trkpt lat="47.41405" lon="4.91678">
        <ele>449.2</ele>
        <time>2016-09-13T13:22:16Z</time>
      </trkpt>
      <trkpt lat="47.41414" lon="4.91683">
        <ele>448.1</ele>
        <time>2016-09-13T13:22:24Z</time>
      </trkpt>
      <trkpt lat="47.41424" lon="4.91687">
        <ele>445.7</ele>
        <time>2016-09-13T13:22:33Z</time>
      </trkpt>
      <trkpt lat="47.41434" lon="4.91691">
        <ele>442.5</ele>
        <time>2016-09-13T13:22:50Z</time>
      </trkpt>
      <trkpt lat="47.41443" lon="4.91695">
        <ele>439.3</ele>
        <time>2016-09-13T13:22:58Z</time>
      </trkpt>
      <trkpt lat="47.41452" lon="4.91699">
        <ele>436.6</ele>
        <time>2016-09-13T13:23:09Z</time>
      </trkpt>
      <trkpt lat="47.4146" lon="4.91708">
        <ele>434.9</ele>
        <time>2016-09-13T13:23:24Z</time>
      </trkpt>
      <trkpt lat="47.41463" lon="4.91722">
        <ele>435.9</ele>
        <time>2016-09-13T13:23:36Z</time>
      </trkpt>
      <trkpt lat="47.41466" lon="4.91735">
        <ele>436.8</ele>
        <time>2016-09-13T13:24:48Z</time>
      </trkpt>
      <trkpt lat="47.4147" lon="4.91747">
        <ele>436.8</ele>
        <time>2016-09-13T13:25:02Z</time>
      </trkpt>
      <trkpt lat="47.41475" lon="4.91758">
        <ele>435.9</ele>
        <time>2016-09-13T13:25:12Z</time>
      </trkpt>
      <trkpt lat="47.41481" lon="4.9177">
        <ele>434.7</ele>
        <time>2016-09-13T13:25:20Z</time>
      </trkpt>
      <trkpt lat="47.41481" lon="4.91784">
        <ele>436.1</ele>
        <time>2016-09-13T13:25:32Z</time>
      </trkpt>
      <trkpt lat="47.41485" lon="4.91797">
        <ele>435.5</ele>
        <time>2016-09-13T13:25:59Z</time>
      </trkpt>
      <trkpt lat="47.41491" lon="4.91808">
        <ele>434.1</ele>
        <time>2016-09-13T13:26:04Z</time>
      </trkpt>
      <trkpt lat="47.41494" lon="4.91821">
        <ele>434.2</ele>
        <time>2016-09-13T13:26:11Z</time>
      </trkpt>
      <trkpt lat="47.41499" lon="4.91832">
        <ele>433.4</ele>
        <time>2016-09-13T13:26:18Z</time>
      </trkpt>
      <trkpt lat="47.41504" lon="4.91846">
        <ele>432.5</ele>
        <time>2016-09-13T13:26:42Z</time>
      </trkpt>
      <trkpt lat="47.41509" lon="4.9186">
        <ele>431.9</ele>
        <time>2016-09-13T13:26:47Z</time>
      </trkpt>
      <trkpt lat="47.41512" lon="4.91872">
        <ele>431.8</ele>
        <time>2016-09-13T13:26:53Z</time>
      </trkpt>
      <trkpt lat="47.41519" lon="4.91884">
        <ele>429.9</ele>
        <time>2016-09-13T13:27:14Z</time>
      </trkpt>
      <trkpt lat="47.41523" lon="4.91896">
        <ele>429.4</ele>
        <time>2016-09-13T13:27:20Z</time>
      </trkpt>
      <trkpt lat="47.41529" lon="4.91909">
        <ele>428.5</ele>
        <time>2016-09-13T13:27:28Z</time>
      </trkpt>
      <trkpt lat="47.41536" lon="4.91918">
        <ele>425.8</ele>
        <time>2016-09-13T13:27:33Z</time>
      </trkpt>
      <trkpt lat="47.41539" lon="4.91931">
        <ele>426.4</ele>
        <time>2016-09-13T13:27:42Z</time>
      </trkpt>
      <trkpt lat="47.41546" lon="4.91946">
        <ele>425.7</ele>
        <time>2016-09-13T13:27:54Z</time>
      </trkpt>
      <trkpt lat="47.41551" lon="4.91957">
        <ele>425</ele>
        <time>2016-09-13T13:28:08Z</time>
      </trkpt>
      <trkpt lat="47.41558" lon="4.91967">
        <ele>423.8</ele>
        <time>2016-09-13T13:28:16Z</time>
      </trkpt>
      <trkpt lat="47.41562" lon="4.91978">
        <ele>423.7</ele>
        <time>2016-09-13T13:28:31Z</time>
      </trkpt>
      <trkpt lat="47.41567" lon="4.91992">
        <ele>423.8</ele>
        <time>2016-09-13T13:28:45Z</time>
      </trkpt>
      <trkpt lat="47.41575" lon="4.92001">
        <ele>421.8</ele>
        <time>2016-09-13T13:28:51Z</time>
      </trkpt>
      <trkpt lat="47.41578" lon="4.92014">
        <ele>422.6</ele>
        <time>2016-09-13T13:28:58Z</time>
      </trkpt>
      <trkpt lat="47.41581" lon="4.92028">
        <ele>422.8</ele>
        <time>2016-09-13T13:29:04Z</time>
      </trkpt>
      <trkpt lat="47.41589" lon="4.92036">
        <ele>420</ele>
        <time>2016-09-13T13:29:12Z</time>
      </trkpt>
      <trkpt lat="47.41592" lon="4.92049">
        <ele>419.7</ele>
        <time>2016-09-13T13:29:21Z</time>
      </trkpt>
      <trkpt lat="47.41594" lon="4.92035">
        <ele>416.9</ele>
        <time>2016-09-13T13:35:02Z</time>
      </trkpt>
      <trkpt lat="47.41593" lon="4.92021">
        <ele>415</ele>
        <time>2016-09-13T13:35:07Z</time>
      </trkpt>
      <trkpt lat="47.41591" lon="4.92007">
        <ele>414.3</ele>
        <time>2016-09-13T13:35:10Z</time>
      </trkpt>
      <trkpt lat="47.41588" lon="4.91995">
        <ele>414.1</ele>
        <time>2016-09-13T13:35:13Z</time>
      </trkpt>
      <trkpt lat="47.41587" lon="4.91981">
        <ele>412.2</ele>
        <time>2016-09-13T13:35:18Z</time>
      </trkpt>
      <trkpt lat="47.41585" lon="4.91967">
        <ele>410.4</ele>
        <time>2016-09-13T13:35:30Z</time>
      </trkpt>
      <trkpt lat="47.41586" lon="4.91954">
        <ele>407.4</ele>
        <time>2016-09-13T13:35:44Z</time>
      </trkpt>
      <trkpt lat="47.41586" lon="4.9194">
        <ele>404.9</ele>
        <time>2016-09-13T13:35:56Z</time>
      </trkpt>
      <trkpt lat="47.41587" lon="4.91925">
        <ele>401.7</ele>
        <time>2016-09-13T13:36:06Z</time>
      </trkpt>
      <trkpt lat="47.4159" lon="4.91912">
        <ele>397.8</ele>
        <time>2016-09-13T13:36:13Z</time>
      </trkpt>
      <trkpt lat="47.4159" lon="4.91896">
        <ele>395.8</ele>
        <time>2016-09-13T13:36:34Z</time>
      </trkpt>
      <trkpt lat="47.41581" lon="4.91881">
        <ele>397.9</ele>
        <time>2016-09-13T13:36:39Z</time>
      </trkpt>
      <trkpt lat="47.41589" lon="4.91874">
        <ele>393.2</ele>
        <time>2016-09-13T13:36:48Z</time>
      </trkpt>
      <trkpt lat="47.41591" lon="4.91862">
        <ele>390.2</ele>
        <time>2016-09-13T13:37:30Z</time>
      </trkpt>
      <trkpt lat="47.41591" lon="4.91848">
        <ele>388.5</ele>
        <time>2016-09-13T13:37:34Z</time>
      </trkpt>
      <trkpt lat="47.41587" lon="4.91836">
        <ele>388.6</ele>
        <time>2016-09-13T13:37:39Z</time>
      </trkpt>
      <trkpt lat="47.41588" lon="4.91822">
        <ele>386.6</ele>
        <time>2016-09-13T13:37:46Z</time>
      </trkpt>
      <trkpt lat="47.41589" lon="4.91809">
        <ele>385.2</ele>
        <time>2016-09-13T13:37:57Z</time>
      </trkpt>
      <trkpt lat="47.41586" lon="4.91795">
        <ele>384.9</ele>
        <time>2016-09-13T13:38:06Z</time>
      </trkpt>
      <trkpt lat="47.4159" lon="4.91782">
        <ele>382.4</ele>
        <time>2016-09-13T13:38:15Z</time>
      </trkpt>
      <trkpt lat="47.41593" lon="4.91768">
        <ele>379.6</ele>
        <time>2016-09-13T13:38:26Z</time>
      </trkpt>
      <trkpt lat="47.41592" lon="4.91754">
        <ele>378.6</ele>
        <time>2016-09-13T13:38:33Z</time>
      </trkpt>
      <trkpt lat="47.41593" lon="4.91741">
        <ele>377.6</ele>
        <time>2016-09-13T13:38:39Z</time>
      </trkpt>
      <trkpt lat="47.41595" lon="4.91727">
        <ele>376.2</ele>
        <time>2016-09-13T13:38:56Z</time>
      </trkpt>
      <trkpt lat="47.41597" lon="4.91713">
        <ele>375</ele>
        <time>2016-09-13T13:39:07Z</time>
      </trkpt>
      <trkpt lat="47.41601" lon="4.91701">
        <ele>373.2</ele>
        <time>2016-09-13T13:39:15Z</time>
      </trkpt>
      <trkpt lat="47.41597" lon="4.91688">
        <ele>374</ele>
        <time>2016-09-13T13:39:24Z</time>
      </trkpt>
      <trkpt lat="47.41596" lon="4.91673">
        <ele>373.8</ele>
        <time>2016-09-13T13:39:36Z</time>
      </trkpt>
      <trkpt lat="47.41594" lon="4.91659">
        <ele>373.9</ele>
        <time>2016-09-13T13:40:04Z</time>
      </trkpt>
      <trkpt lat="47.41596" lon="4.91646">
        <ele>373.1</ele>
        <time>2016-09-13T13:40:11Z</time>
      </trkpt>
      <trkpt lat="47.41599" lon="4.91633">
        <ele>371.8</ele>
        <time>2016-09-13T13:40:16Z</time>
      </trkpt>
      <trkpt lat="47.41605" lon="4.91622">
        <ele>369.7</ele>
        <time>2016-09-13T13:40:23Z</time>
      </trkpt>
      <trkpt lat="47.41607" lon="4.91608">
        <ele>368.8</ele>
        <time>2016-09-13T13:40:30Z</time>
      </trkpt>
      <trkpt lat="47.4161" lon="4.91594">
        <ele>367.7</ele>
        <time>2016-09-13T13:40:40Z</time>
      </trkpt>
      <trkpt lat="47.41613" lon="4.91581">
        <ele>366.7</ele>
        <time>2016-09-13T13:40:50Z</time>
      </trkpt>
      <trkpt lat="47.41618" lon="4.91568">
        <ele>364.9</ele>
        <time>2016-09-13T13:41:00Z</time>
      </trkpt>
      <trkpt lat="47.41627" lon="4.91561">
        <ele>362.4</ele>
        <time>2016-09-13T13:41:08Z</time>
      </trkpt>
      <trkpt lat="47.41633" lon="4.91551">
        <ele>360.5</ele>
        <time>2016-09-13T13:41:18Z</time>
      </trkpt>
      <trkpt lat="47.4164" lon="4.9154">
        <ele>358.8</ele>
        <time>2016-09-13T13:41:27Z</time>
      </trkpt>
      <trkpt lat="47.41645" lon="4.91528">
        <ele>357.4</ele>
        <time>2016-09-13T13:41:38Z</time>
      </trkpt>
      <trkpt lat="47.41648" lon="4.91515">
        <ele>356.5</ele>
        <time>2016-09-13T13:41:47Z</time>
      </trkpt>
      <trkpt lat="47.41652" lon="4.91502">
        <ele>355.4</ele>
        <time>2016-09-13T13:41:58Z</time>
      </trkpt>
      <trkpt lat="47.41657" lon="4.91491">
        <ele>353.7</ele>
        <time>2016-09-13T13:42:12Z</time>
      </trkpt>
      <trkpt lat="47.41652" lon="4.91479">
        <ele>354.2</ele>
        <time>2016-09-13T13:42:18Z</time>
      </trkpt>
      <trkpt lat="47.4165" lon="4.91462">
        <ele>353.8</ele>
        <time>2016-09-13T13:42:25Z</time>
      </trkpt>
      <trkpt lat="47.41655" lon="4.9145">
        <ele>352.4</ele>
        <time>2016-09-13T13:42:38Z</time>
      </trkpt>
      <trkpt lat="47.41661" lon="4.91438">
        <ele>350.7</ele>
        <time>2016-09-13T13:42:54Z</time>
      </trkpt>
      <trkpt lat="47.41665" lon="4.91426">
        <ele>349.5</ele>
        <time>2016-09-13T13:43:00Z</time>
      </trkpt>
      <trkpt lat="47.41666" lon="4.91412">
        <ele>349</ele>
        <time>2016-09-13T13:43:11Z</time>
      </trkpt>
      <trkpt lat="47.41668" lon="4.91398">
        <ele>349</ele>
        <time>2016-09-13T13:43:21Z</time>
      </trkpt>
      <trkpt lat="47.41671" lon="4.91384">
        <ele>349.2</ele>
        <time>2016-09-13T13:43:28Z</time>
      </trkpt>
      <trkpt lat="47.41672" lon="4.9137">
        <ele>349.4</ele>
        <time>2016-09-13T13:43:35Z</time>
      </trkpt>
      <trkpt lat="47.41676" lon="4.91357">
        <ele>349.9</ele>
        <time>2016-09-13T13:43:55Z</time>
      </trkpt>
      <trkpt lat="47.41686" lon="4.9136">
        <ele>350.7</ele>
        <time>2016-09-13T13:44:04Z</time>
      </trkpt>
      <trkpt lat="47.41696" lon="4.91365">
        <ele>351.3</ele>
        <time>2016-09-13T13:44:13Z</time>
      </trkpt>
      <trkpt lat="47.41705" lon="4.91373">
        <ele>351.5</ele>
        <time>2016-09-13T13:44:44Z</time>
      </trkpt>
      <trkpt lat="47.41711" lon="4.91383">
        <ele>351.1</ele>
        <time>2016-09-13T13:44:51Z</time>
      </trkpt>
      <trkpt lat="47.41719" lon="4.91393">
        <ele>350.6</ele>
        <time>2016-09-13T13:46:49Z</time>
      </trkpt>
      <trkpt lat="47.41718" lon="4.91407">
        <ele>349.3</ele>
        <time>2016-09-13T13:47:26Z</time>
      </trkpt>
      <trkpt lat="47.41721" lon="4.91421">
        <ele>348.3</ele>
        <time>2016-09-13T13:54:25Z</time>
      </trkpt>
      <trkpt lat="47.41726" lon="4.91433">
        <ele>347.9</ele>
        <time>2016-09-13T13:54:33Z</time>
      </trkpt>
      <trkpt lat="47.41731" lon="4.91444">
        <ele>347.4</ele>
        <time>2016-09-13T13:54:42Z</time>
      </trkpt>
      <trkpt lat="47.41731" lon="4.91459">
        <ele>347</ele>
        <time>2016-09-13T13:54:50Z</time>
      </trkpt>
      <trkpt lat="47.41735" lon="4.91473">
        <ele>346.3</ele>
        <time>2016-09-13T13:54:55Z</time>
      </trkpt>
      <trkpt lat="47.41739" lon="4.91487">
        <ele>345.5</ele>
        <time>2016-09-13T13:55:02Z</time>
      </trkpt>
      <trkpt lat="47.41745" lon="4.91499">
        <ele>344.6</ele>
        <time>2016-09-13T13:55:08Z</time>
      </trkpt>
      <trkpt lat="47.41747" lon="4.91513">
        <ele>344.3</ele>
        <time>2016-09-13T13:55:17Z</time>
      </trkpt>
      <trkpt lat="47.41757" lon="4.91518">
        <ele>346</ele>
        <time>2016-09-13T13:55:40Z</time>
      </trkpt>
      <trkpt lat="47.41766" lon="4.91512">
        <ele>348.4</ele>
        <time>2016-09-13T13:55:45Z</time>
      </trkpt>
      <trkpt lat="47.41776" lon="4.91506">
        <ele>351.2</ele>
        <time>2016-09-13T13:55:52Z</time>
      </trkpt>
      <trkpt lat="47.41784" lon="4.91499">
        <ele>353.9</ele>
        <time>2016-09-13T13:56:00Z</time>
      </trkpt>
      <trkpt lat="47.41793" lon="4.91495">
        <ele>356.9</ele>
        <time>2016-09-13T13:56:10Z</time>
      </trkpt>
      <trkpt lat="47.41802" lon="4.91489">
        <ele>360</ele>
        <time>2016-09-13T13:56:22Z</time>
      </trkpt>
      <trkpt lat="47.41795" lon="4.91498">
        <ele>357.1</ele>
        <time>2016-09-13T13:58:48Z</time>
      </trkpt>
      <trkpt lat="47.41786" lon="4.91508">
        <ele>354.1</ele>
        <time>2016-09-13T13:58:55Z</time>
      </trkpt>
      <trkpt lat="47.41777" lon="4.91516">
        <ele>351.2</ele>
        <time>2016-09-13T13:59:03Z</time>
      </trkpt>
      <trkpt lat="47.41768" lon="4.91519">
        <ele>348.6</ele>
        <time>2016-09-13T13:59:10Z</time>
      </trkpt>
      <trkpt lat="47.41762" lon="4.91529">
        <ele>346.9</ele>
        <time>2016-09-13T13:59:28Z</time>
      </trkpt>
      <trkpt lat="47.41754" lon="4.91535">
        <ele>344.9</ele>
        <time>2016-09-13T13:59:42Z</time>
      </trkpt>
      <trkpt lat="47.41754" lon="4.91548">
        <ele>344.9</ele>
        <time>2016-09-13T13:59:55Z</time>
      </trkpt>
      <trkpt lat="47.41749" lon="4.9156">
        <ele>344.1</ele>
        <time>2016-09-13T14:00:04Z</time>
      </trkpt>
      <trkpt lat="47.41753" lon="4.91574">
        <ele>344.6</ele>
        <time>2016-09-13T14:00:14Z</time>
      </trkpt>
      <trkpt lat="47.4175" lon="4.91587">
        <ele>344</ele>
        <time>2016-09-13T14:00:23Z</time>
      </trkpt>
      <trkpt lat="47.41749" lon="4.916">
        <ele>343.9</ele>
        <time>2016-09-13T14:00:34Z</time>
      </trkpt>
      <trkpt lat="47.41749" lon="4.91614">
        <ele>343.8</ele>
        <time>2016-09-13T14:00:42Z</time>
      </trkpt>
      <trkpt lat="47.41747" lon="4.91628">
        <ele>343.7</ele>
        <time>2016-09-13T14:00:49Z</time>
      </trkpt>
      <trkpt lat="47.41741" lon="4.91641">
        <ele>344</ele>
        <time>2016-09-13T14:00:56Z</time>
      </trkpt>
      <trkpt lat="47.41737" lon="4.91654">
        <ele>344.1</ele>
        <time>2016-09-13T14:01:06Z</time>
      </trkpt>
      <trkpt lat="47.41735" lon="4.91667">
        <ele>344.1</ele>
        <time>2016-09-13T14:01:13Z</time>
      </trkpt>
      <trkpt lat="47.41733" lon="4.9168">
        <ele>344.1</ele>
        <time>2016-09-13T14:01:21Z</time>
      </trkpt>
      <trkpt lat="47.41732" lon="4.91693">
        <ele>344</ele>
        <time>2016-09-13T14:01:28Z</time>
      </trkpt>
      <trkpt lat="47.41729" lon="4.91706">
        <ele>344.1</ele>
        <time>2016-09-13T14:01:37Z</time>
      </trkpt>
      <trkpt lat="47.41731" lon="4.9172">
        <ele>343.7</ele>
        <time>2016-09-13T14:01:46Z</time>
      </trkpt>
      <trkpt lat="47.41732" lon="4.91734">
        <ele>343.5</ele>
        <time>2016-09-13T14:01:50Z</time>
      </trkpt>
      <trkpt lat="47.41739" lon="4.91745">
        <ele>342.9</ele>
        <time>2016-09-13T14:01:58Z</time>
      </trkpt>
      <trkpt lat="47.41739" lon="4.9176">
        <ele>342.7</ele>
        <time>2016-09-13T14:02:06Z</time>
      </trkpt>
      <trkpt lat="47.41745" lon="4.91772">
        <ele>342.2</ele>
        <time>2016-09-13T14:02:12Z</time>
      </trkpt>
      <trkpt lat="47.41747" lon="4.91786">
        <ele>341.9</ele>
        <time>2016-09-13T14:02:20Z</time>
      </trkpt>
      <trkpt lat="47.41748" lon="4.918">
        <ele>341.6</ele>
        <time>2016-09-13T14:02:32Z</time>
      </trkpt>
      <trkpt lat="47.41754" lon="4.91812">
        <ele>341.9</ele>
        <time>2016-09-13T14:02:39Z</time>
      </trkpt>
      <trkpt lat="47.41758" lon="4.91824">
        <ele>342.4</ele>
        <time>2016-09-13T14:02:47Z</time>
      </trkpt>
      <trkpt lat="47.41761" lon="4.91839">
        <ele>342.8</ele>
        <time>2016-09-13T14:02:56Z</time>
      </trkpt>
      <trkpt lat="47.41764" lon="4.91852">
        <ele>343.4</ele>
        <time>2016-09-13T14:03:05Z</time>
      </trkpt>
      <trkpt lat="47.41766" lon="4.91865">
        <ele>343.8</ele>
        <time>2016-09-13T14:03:11Z</time>
      </trkpt>
      <trkpt lat="47.41768" lon="4.91879">
        <ele>344.2</ele>
        <time>2016-09-13T14:03:21Z</time>
      </trkpt>
      <trkpt lat="47.41772" lon="4.91892">
        <ele>344.8</ele>
        <time>2016-09-13T14:03:28Z</time>
      </trkpt>
      <trkpt lat="47.41776" lon="4.91905">
        <ele>345.4</ele>
        <time>2016-09-13T14:03:37Z</time>
      </trkpt>
      <trkpt lat="47.41775" lon="4.91918">
        <ele>345.3</ele>
        <time>2016-09-13T14:03:48Z</time>
      </trkpt>
      <trkpt lat="47.41779" lon="4.91932">
        <ele>345.7</ele>
        <time>2016-09-13T14:04:00Z</time>
      </trkpt>
      <trkpt lat="47.41788" lon="4.9194">
        <ele>346.6</ele>
        <time>2016-09-13T14:04:04Z</time>
      </trkpt>
      <trkpt lat="47.41798" lon="4.91947">
        <ele>347.4</ele>
        <time>2016-09-13T14:04:08Z</time>
      </trkpt>
      <trkpt lat="47.41799" lon="4.91961">
        <ele>347</ele>
        <time>2016-09-13T14:04:16Z</time>
      </trkpt>
      <trkpt lat="47.41794" lon="4.91974">
        <ele>346.3</ele>
        <time>2016-09-13T14:04:24Z</time>
      </trkpt>
      <trkpt lat="47.41797" lon="4.91988">
        <ele>346.1</ele>
        <time>2016-09-13T14:04:34Z</time>
      </trkpt>
      <trkpt lat="47.41805" lon="4.91997">
        <ele>346.1</ele>
        <time>2016-09-13T14:04:37Z</time>
      </trkpt>
      <trkpt lat="47.41809" lon="4.9201">
        <ele>345.9</ele>
        <time>2016-09-13T14:04:47Z</time>
      </trkpt>
      <trkpt lat="47.41805" lon="4.92022">
        <ele>345.6</ele>
        <time>2016-09-13T14:04:55Z</time>
      </trkpt>
      <trkpt lat="47.41815" lon="4.92029">
        <ele>345.6</ele>
        <time>2016-09-13T14:05:06Z</time>
      </trkpt>
      <trkpt lat="47.41823" lon="4.92042">
        <ele>345.1</ele>
        <time>2016-09-13T14:05:47Z</time>
      </trkpt>
      <trkpt lat="47.4183" lon="4.92053">
        <ele>344.6</ele>
        <time>2016-09-13T14:05:50Z</time>
      </trkpt>
      <trkpt lat="47.41828" lon="4.92073">
        <ele>343.8</ele>
        <time>2016-09-13T14:05:54Z</time>
      </trkpt>
      <trkpt lat="47.41829" lon="4.92087">
        <ele>343.2</ele>
        <time>2016-09-13T14:05:58Z</time>
      </trkpt>
      <trkpt lat="47.41833" lon="4.921">
        <ele>342.6</ele>
        <time>2016-09-13T14:06:04Z</time>
      </trkpt>
      <trkpt lat="47.4183" lon="4.92114">
        <ele>342.7</ele>
        <time>2016-09-13T14:06:10Z</time>
      </trkpt>
      <trkpt lat="47.41832" lon="4.92129">
        <ele>342.1</ele>
        <time>2016-09-13T14:06:14Z</time>
      </trkpt>
      <trkpt lat="47.41837" lon="4.92141">
        <ele>341.9</ele>
        <time>2016-09-13T14:06:18Z</time>
      </trkpt>
      <trkpt lat="47.41846" lon="4.92149">
        <ele>342.1</ele>
        <time>2016-09-13T14:06:23Z</time>
      </trkpt>
      <trkpt lat="47.41852" lon="4.92161">
        <ele>342</ele>
        <time>2016-09-13T14:06:28Z</time>
      </trkpt>
      <trkpt lat="47.41861" lon="4.92171">
        <ele>341.9</ele>
        <time>2016-09-13T14:06:34Z</time>
      </trkpt>
      <trkpt lat="47.41873" lon="4.92186">
        <ele>341.8</ele>
        <time>2016-09-13T14:06:40Z</time>
      </trkpt>
      <trkpt lat="47.41887" lon="4.92191">
        <ele>341.8</ele>
        <time>2016-09-13T14:06:45Z</time>
      </trkpt>
      <trkpt lat="47.4188" lon="4.92202">
        <ele>341.2</ele>
        <time>2016-09-13T14:06:49Z</time>
      </trkpt>
      <trkpt lat="47.41887" lon="4.92213">
        <ele>340.7</ele>
        <time>2016-09-13T14:06:55Z</time>
      </trkpt>
      <trkpt lat="47.41876" lon="4.92215">
        <ele>340.8</ele>
        <time>2016-09-13T14:06:58Z</time>
      </trkpt>
      <trkpt lat="47.41878" lon="4.92228">
        <ele>340.2</ele>
        <time>2016-09-13T14:07:10Z</time>
      </trkpt>
      <trkpt lat="47.41887" lon="4.92234">
        <ele>339.6</ele>
        <time>2016-09-13T14:07:13Z</time>
      </trkpt>
      <trkpt lat="47.41893" lon="4.92246">
        <ele>338.7</ele>
        <time>2016-09-13T14:07:23Z</time>
      </trkpt>
      <trkpt lat="47.419" lon="4.92256">
        <ele>338.4</ele>
        <time>2016-09-13T14:07:31Z</time>
      </trkpt>
      <trkpt lat="47.41906" lon="4.92268">
        <ele>338.7</ele>
        <time>2016-09-13T14:07:41Z</time>
      </trkpt>
      <trkpt lat="47.41914" lon="4.92277">
        <ele>338.8</ele>
        <time>2016-09-13T14:07:49Z</time>
      </trkpt>
      <trkpt lat="47.41918" lon="4.92291">
        <ele>339.5</ele>
        <time>2016-09-13T14:08:00Z</time>
      </trkpt>
      <trkpt lat="47.41924" lon="4.92301">
        <ele>340.4</ele>
        <time>2016-09-13T14:08:13Z</time>
      </trkpt>
      <trkpt lat="47.41931" lon="4.92311">
        <ele>341.2</ele>
        <time>2016-09-13T14:08:18Z</time>
      </trkpt>
      <trkpt lat="47.4194" lon="4.92317">
        <ele>341.6</ele>
        <time>2016-09-13T14:08:21Z</time>
      </trkpt>
      <trkpt lat="47.41951" lon="4.92319">
        <ele>341.9</ele>
        <time>2016-09-13T14:08:31Z</time>
      </trkpt>
      <trkpt lat="47.4196" lon="4.92324">
        <ele>342.1</ele>
        <time>2016-09-13T14:08:41Z</time>
      </trkpt>
      <trkpt lat="47.4197" lon="4.92329">
        <ele>342.1</ele>
        <time>2016-09-13T14:08:59Z</time>
      </trkpt>
      <trkpt lat="47.41979" lon="4.92336">
        <ele>342</ele>
        <time>2016-09-13T14:09:09Z</time>
      </trkpt>
      <trkpt lat="47.41981" lon="4.9235">
        <ele>342.2</ele>
        <time>2016-09-13T14:09:12Z</time>
      </trkpt>
      <trkpt lat="47.41987" lon="4.92362">
        <ele>341.8</ele>
        <time>2016-09-13T14:09:19Z</time>
      </trkpt>
      <trkpt lat="47.41996" lon="4.9237">
        <ele>341</ele>
        <time>2016-09-13T14:09:27Z</time>
      </trkpt>
      <trkpt lat="47.42009" lon="4.92379">
        <ele>341.3</ele>
        <time>2016-09-13T14:09:46Z</time>
      </trkpt>
      <trkpt lat="47.42018" lon="4.92388">
        <ele>341.7</ele>
        <time>2016-09-13T14:09:53Z</time>
      </trkpt>
      <trkpt lat="47.42023" lon="4.924">
        <ele>341.3</ele>
        <time>2016-09-13T14:10:04Z</time>
      </trkpt>
      <trkpt lat="47.42028" lon="4.92412">
        <ele>340.8</ele>
        <time>2016-09-13T14:10:12Z</time>
      </trkpt>
      <trkpt lat="47.42031" lon="4.92425">
        <ele>340.6</ele>
        <time>2016-09-13T14:10:20Z</time>
      </trkpt>
      <trkpt lat="47.42039" lon="4.92433">
        <ele>340.8</ele>
        <time>2016-09-13T14:10:26Z</time>
      </trkpt>
      <trkpt lat="47.4204" lon="4.92446">
        <ele>340.8</ele>
        <time>2016-09-13T14:10:32Z</time>
      </trkpt>
      <trkpt lat="47.42046" lon="4.92457">
        <ele>340.7</ele>
        <time>2016-09-13T14:11:05Z</time>
      </trkpt>
      <trkpt lat="47.42054" lon="4.9247">
        <ele>340.2</ele>
        <time>2016-09-13T14:11:08Z</time>
      </trkpt>
      <trkpt lat="47.4206" lon="4.92482">
        <ele>339.6</ele>
        <time>2016-09-13T14:11:14Z</time>
      </trkpt>
      <trkpt lat="47.42064" lon="4.92495">
        <ele>338.9</ele>
        <time>2016-09-13T14:11:21Z</time>
      </trkpt>
      <trkpt lat="47.42067" lon="4.92508">
        <ele>338.5</ele>
        <time>2016-09-13T14:11:27Z</time>
      </trkpt>
      <trkpt lat="47.42073" lon="4.92521">
        <ele>338.1</ele>
        <time>2016-09-13T14:11:33Z</time>
      </trkpt>
      <trkpt lat="47.4208" lon="4.92529">
        <ele>337.4</ele>
        <time>2016-09-13T14:11:39Z</time>
      </trkpt>
      <trkpt lat="47.42084" lon="4.92542">
        <ele>337</ele>
        <time>2016-09-13T14:11:47Z</time>
      </trkpt>
      <trkpt lat="47.42085" lon="4.92555">
        <ele>337.1</ele>
        <time>2016-09-13T14:11:56Z</time>
      </trkpt>
      <trkpt lat="47.42094" lon="4.92561">
        <ele>337.9</ele>
        <time>2016-09-13T14:12:04Z</time>
      </trkpt>
      <trkpt lat="47.42093" lon="4.92576">
        <ele>337.7</ele>
        <time>2016-09-13T14:12:14Z</time>
      </trkpt>
      <trkpt lat="47.42098" lon="4.92589">
        <ele>338</ele>
        <time>2016-09-13T14:12:22Z</time>
      </trkpt>
      <trkpt lat="47.42106" lon="4.92597">
        <ele>338.5</ele>
        <time>2016-09-13T14:12:27Z</time>
      </trkpt>
      <trkpt lat="47.4211" lon="4.92609">
        <ele>338.8</ele>
        <time>2016-09-13T14:12:33Z</time>
      </trkpt>
      <trkpt lat="47.42119" lon="4.92617">
        <ele>339.3</ele>
        <time>2016-09-13T14:12:42Z</time>
      </trkpt>
      <trkpt lat="47.4211" lon="4.92622">
        <ele>338.9</ele>
        <time>2016-09-13T14:13:11Z</time>
      </trkpt>
      <trkpt lat="47.42119" lon="4.92633">
        <ele>339.3</ele>
        <time>2016-09-13T14:13:44Z</time>
      </trkpt>
      <trkpt lat="47.4212" lon="4.92646">
        <ele>339.4</ele>
        <time>2016-09-13T14:13:52Z</time>
      </trkpt>
      <trkpt lat="47.42128" lon="4.92656">
        <ele>339.5</ele>
        <time>2016-09-13T14:14:00Z</time>
      </trkpt>
      <trkpt lat="47.42134" lon="4.92666">
        <ele>339.6</ele>
        <time>2016-09-13T14:14:07Z</time>
      </trkpt>
      <trkpt lat="47.42137" lon="4.92679">
        <ele>339.8</ele>
        <time>2016-09-13T14:14:12Z</time>
      </trkpt>
      <trkpt lat="47.42141" lon="4.92692">
        <ele>339.8</ele>
        <time>2016-09-13T14:14:20Z</time>
      </trkpt>
      <trkpt lat="47.42146" lon="4.92704">
        <ele>339.7</ele>
        <time>2016-09-13T14:14:31Z</time>
      </trkpt>
      <trkpt lat="47.42151" lon="4.92717">
        <ele>339.5</ele>
        <time>2016-09-13T14:14:37Z</time>
      </trkpt>
      <trkpt lat="47.42154" lon="4.92731">
        <ele>339.2</ele>
        <time>2016-09-13T14:14:47Z</time>
      </trkpt>
      <trkpt lat="47.42159" lon="4.92741">
        <ele>338.8</ele>
        <time>2016-09-13T14:14:55Z</time>
      </trkpt>
      <trkpt lat="47.42166" lon="4.92752">
        <ele>338.1</ele>
        <time>2016-09-13T14:15:04Z</time>
      </trkpt>
      <trkpt lat="47.42168" lon="4.92767">
        <ele>338.8</ele>
        <time>2016-09-13T14:15:16Z</time>
      </trkpt>
      <trkpt lat="47.42161" lon="4.92776">
        <ele>339.7</ele>
        <time>2016-09-13T14:15:28Z</time>
      </trkpt>
      <trkpt lat="47.42151" lon="4.92783">
        <ele>341.4</ele>
        <time>2016-09-13T14:16:25Z</time>
      </trkpt>
      <trkpt lat="47.42141" lon="4.92781">
        <ele>342.6</ele>
        <time>2016-09-13T14:16:29Z</time>
      </trkpt>
      <trkpt lat="47.42131" lon="4.92781">
        <ele>344.1</ele>
        <time>2016-09-13T14:16:38Z</time>
      </trkpt>
      <trkpt lat="47.42122" lon="4.92791">
        <ele>346.4</ele>
        <time>2016-09-13T14:16:41Z</time>
      </trkpt>
      <trkpt lat="47.42112" lon="4.92799">
        <ele>348.9</ele>
        <time>2016-09-13T14:16:46Z</time>
      </trkpt>
      <trkpt lat="47.42103" lon="4.92798">
        <ele>350.2</ele>
        <time>2016-09-13T14:16:58Z</time>
      </trkpt>
      <trkpt lat="47.42093" lon="4.92805">
        <ele>353.1</ele>
        <time>2016-09-13T14:17:07Z</time>
      </trkpt>
      <trkpt lat="47.42084" lon="4.9281">
        <ele>355.5</ele>
        <time>2016-09-13T14:17:15Z</time>
      </trkpt>
      <trkpt lat="47.42077" lon="4.92818">
        <ele>357.9</ele>
        <time>2016-09-13T14:17:28Z</time>
      </trkpt>
      <trkpt lat="47.42069" lon="4.92812">
        <ele>358.1</ele>
        <time>2016-09-13T14:17:37Z</time>
      </trkpt>
      <trkpt lat="47.4206" lon="4.92818">
        <ele>359.9</ele>
        <time>2016-09-13T14:17:44Z</time>
      </trkpt>
      <trkpt lat="47.42051" lon="4.92825">
        <ele>362.1</ele>
        <time>2016-09-13T14:17:58Z</time>
      </trkpt>
      <trkpt lat="47.42042" lon="4.92822">
        <ele>362.7</ele>
        <time>2016-09-13T14:18:03Z</time>
      </trkpt>
      <trkpt lat="47.42032" lon="4.92829">
        <ele>364.4</ele>
        <time>2016-09-13T14:18:42Z</time>
      </trkpt>
      <trkpt lat="47.42026" lon="4.92841">
        <ele>366.8</ele>
        <time>2016-09-13T14:18:47Z</time>
      </trkpt>
      <trkpt lat="47.42018" lon="4.92848">
        <ele>369.1</ele>
        <time>2016-09-13T14:18:53Z</time>
      </trkpt>
      <trkpt lat="47.42017" lon="4.92862">
        <ele>372.1</ele>
        <time>2016-09-13T14:18:58Z</time>
      </trkpt>
      <trkpt lat="47.42012" lon="4.92878">
        <ele>375.8</ele>
        <time>2016-09-13T14:19:06Z</time>
      </trkpt>
      <trkpt lat="47.42003" lon="4.92884">
        <ele>378</ele>
        <time>2016-09-13T14:19:11Z</time>
      </trkpt>
      <trkpt lat="47.41994" lon="4.92894">
        <ele>380.6</ele>
        <time>2016-09-13T14:19:27Z</time>
      </trkpt>
      <trkpt lat="47.41991" lon="4.92908">
        <ele>383.1</ele>
        <time>2016-09-13T14:19:34Z</time>
      </trkpt>
      <trkpt lat="47.41979" lon="4.92912">
        <ele>383.6</ele>
        <time>2016-09-13T14:19:46Z</time>
      </trkpt>
      <trkpt lat="47.41971" lon="4.9292">
        <ele>384.9</ele>
        <time>2016-09-13T14:19:56Z</time>
      </trkpt>
      <trkpt lat="47.41965" lon="4.92932">
        <ele>387.5</ele>
        <time>2016-09-13T14:20:04Z</time>
      </trkpt>
      <trkpt lat="47.41959" lon="4.92942">
        <ele>389.7</ele>
        <time>2016-09-13T14:20:11Z</time>
      </trkpt>
      <trkpt lat="47.4195" lon="4.92946">
        <ele>390.2</ele>
        <time>2016-09-13T14:20:18Z</time>
      </trkpt>
      <trkpt lat="47.41943" lon="4.92964">
        <ele>393.9</ele>
        <time>2016-09-13T14:20:57Z</time>
      </trkpt>
      <trkpt lat="47.41934" lon="4.9297">
        <ele>394.8</ele>
        <time>2016-09-13T14:21:01Z</time>
      </trkpt>
      <trkpt lat="47.41924" lon="4.92973">
        <ele>394.8</ele>
        <time>2016-09-13T14:21:06Z</time>
      </trkpt>
      <trkpt lat="47.41913" lon="4.92981">
        <ele>396</ele>
        <time>2016-09-13T14:21:12Z</time>
      </trkpt>
      <trkpt lat="47.41911" lon="4.92994">
        <ele>398.4</ele>
        <time>2016-09-13T14:21:18Z</time>
      </trkpt>
      <trkpt lat="47.41902" lon="4.93">
        <ele>398.8</ele>
        <time>2016-09-13T14:21:24Z</time>
      </trkpt>
      <trkpt lat="47.41903" lon="4.93016">
        <ele>403.5</ele>
        <time>2016-09-13T14:21:33Z</time>
      </trkpt>
      <trkpt lat="47.41892" lon="4.93017">
        <ele>402.8</ele>
        <time>2016-09-13T14:21:36Z</time>
      </trkpt>
      <trkpt lat="47.41884" lon="4.93026">
        <ele>404.2</ele>
        <time>2016-09-13T14:21:43Z</time>
      </trkpt>
      <trkpt lat="47.41885" lon="4.93042">
        <ele>408.6</ele>
        <time>2016-09-13T14:21:52Z</time>
      </trkpt>
      <trkpt lat="47.41875" lon="4.93043">
        <ele>407.5</ele>
        <time>2016-09-13T14:21:59Z</time>
      </trkpt>
      <trkpt lat="47.41867" lon="4.93052">
        <ele>409.1</ele>
        <time>2016-09-13T14:22:06Z</time>
      </trkpt>
      <trkpt lat="47.41865" lon="4.93067">
        <ele>412.2</ele>
        <time>2016-09-13T14:22:19Z</time>
      </trkpt>
      <trkpt lat="47.41868" lon="4.93084">
        <ele>416.9</ele>
        <time>2016-09-13T14:22:27Z</time>
      </trkpt>
      <trkpt lat="47.41858" lon="4.93086">
        <ele>415.7</ele>
        <time>2016-09-13T14:22:32Z</time>
      </trkpt>
      <trkpt lat="47.41849" lon="4.93093">
        <ele>415.7</ele>
        <time>2016-09-13T14:22:38Z</time>
      </trkpt>
      <trkpt lat="47.41846" lon="4.93107">
        <ele>418.4</ele>
        <time>2016-09-13T14:22:48Z</time>
      </trkpt>
      <trkpt lat="47.41841" lon="4.93119">
        <ele>420</ele>
        <time>2016-09-13T14:22:54Z</time>
      </trkpt>
      <trkpt lat="47.41848" lon="4.93132">
        <ele>424.2</ele>
        <time>2016-09-13T14:23:06Z</time>
      </trkpt>
      <trkpt lat="47.41844" lon="4.93147">
        <ele>426.8</ele>
        <time>2016-09-13T14:23:16Z</time>
      </trkpt>
      <trkpt lat="47.41852" lon="4.93157">
        <ele>430.4</ele>
        <time>2016-09-13T14:23:30Z</time>
      </trkpt>
      <trkpt lat="47.41841" lon="4.9316">
        <ele>429.1</ele>
        <time>2016-09-13T14:23:33Z</time>
      </trkpt>
      <trkpt lat="47.4184" lon="4.93173">
        <ele>431.6</ele>
        <time>2016-09-13T14:23:43Z</time>
      </trkpt>
      <trkpt lat="47.41829" lon="4.93177">
        <ele>430.8</ele>
        <time>2016-09-13T14:23:47Z</time>
      </trkpt>
      <trkpt lat="47.41817" lon="4.93182">
        <ele>430.4</ele>
        <time>2016-09-13T14:23:55Z</time>
      </trkpt>
      <trkpt lat="47.41822" lon="4.93193">
        <ele>433</ele>
        <time>2016-09-13T14:24:02Z</time>
      </trkpt>
      <trkpt lat="47.41812" lon="4.932">
        <ele>433.1</ele>
        <time>2016-09-13T14:24:57Z</time>
      </trkpt>
      <trkpt lat="47.4181" lon="4.93214">
        <ele>435.3</ele>
        <time>2016-09-13T14:24:59Z</time>
      </trkpt>
      <trkpt lat="47.41808" lon="4.93228">
        <ele>437.5</ele>
        <time>2016-09-13T14:25:05Z</time>
      </trkpt>
      <trkpt lat="47.41811" lon="4.93241">
        <ele>440.2</ele>
        <time>2016-09-13T14:25:08Z</time>
      </trkpt>
      <trkpt lat="47.41806" lon="4.93254">
        <ele>441.3</ele>
        <time>2016-09-13T14:25:13Z</time>
      </trkpt>
      <trkpt lat="47.41806" lon="4.93268">
        <ele>443.8</ele>
        <time>2016-09-13T14:25:21Z</time>
      </trkpt>
      <trkpt lat="47.41796" lon="4.93269">
        <ele>442</ele>
        <time>2016-09-13T14:25:25Z</time>
      </trkpt>
      <trkpt lat="47.41789" lon="4.93278">
        <ele>442.4</ele>
        <time>2016-09-13T14:25:32Z</time>
      </trkpt>
      <trkpt lat="47.41782" lon="4.93292">
        <ele>443.7</ele>
        <time>2016-09-13T14:26:15Z</time>
      </trkpt>
      <trkpt lat="47.41778" lon="4.93305">
        <ele>445.2</ele>
        <time>2016-09-13T14:26:19Z</time>
      </trkpt>
      <trkpt lat="47.41775" lon="4.93319">
        <ele>447.2</ele>
        <time>2016-09-13T14:26:28Z</time>
      </trkpt>
      <trkpt lat="47.41773" lon="4.93332">
        <ele>449.1</ele>
        <time>2016-09-13T14:26:37Z</time>
      </trkpt>
      <trkpt lat="47.41779" lon="4.93345">
        <ele>452.5</ele>
        <time>2016-09-13T14:26:44Z</time>
      </trkpt>
      <trkpt lat="47.41777" lon="4.93359">
        <ele>454.4</ele>
        <time>2016-09-13T14:26:59Z</time>
      </trkpt>
      <trkpt lat="47.41774" lon="4.93373">
        <ele>456.1</ele>
        <time>2016-09-13T14:27:07Z</time>
      </trkpt>
      <trkpt lat="47.41771" lon="4.93388">
        <ele>458.4</ele>
        <time>2016-09-13T14:27:14Z</time>
      </trkpt>
      <trkpt lat="47.41758" lon="4.9339">
        <ele>456.5</ele>
        <time>2016-09-13T14:27:23Z</time>
      </trkpt>
      <trkpt lat="47.41755" lon="4.93403">
        <ele>458.2</ele>
        <time>2016-09-13T14:28:33Z</time>
      </trkpt>
      <trkpt lat="47.41759" lon="4.93416">
        <ele>461.1</ele>
        <time>2016-09-13T14:28:39Z</time>
      </trkpt>
      <trkpt lat="47.41752" lon="4.93425">
        <ele>461.5</ele>
        <time>2016-09-13T14:28:44Z</time>
      </trkpt>
      <trkpt lat="47.41747" lon="4.93437">
        <ele>462.9</ele>
        <time>2016-09-13T14:28:52Z</time>
      </trkpt>
      <trkpt lat="47.41745" lon="4.9345">
        <ele>465.1</ele>
        <time>2016-09-13T14:29:18Z</time>
      </trkpt>
      <trkpt lat="47.41739" lon="4.93462">
        <ele>466.4</ele>
        <time>2016-09-13T14:29:42Z</time>
      </trkpt>
      <trkpt lat="47.41737" lon="4.93478">
        <ele>468.8</ele>
        <time>2016-09-13T14:29:48Z</time>
      </trkpt>
      <trkpt lat="47.4173" lon="4.93487">
        <ele>469.7</ele>
        <time>2016-09-13T14:29:54Z</time>
      </trkpt>
      <trkpt lat="47.41734" lon="4.93501">
        <ele>471.9</ele>
        <time>2016-09-13T14:29:59Z</time>
      </trkpt>
      <trkpt lat="47.41738" lon="4.93513">
        <ele>473.4</ele>
        <time>2016-09-13T14:30:07Z</time>
      </trkpt>
      <trkpt lat="47.41734" lon="4.93526">
        <ele>474.4</ele>
        <time>2016-09-13T14:30:16Z</time>
      </trkpt>
      <trkpt lat="47.41741" lon="4.93538">
        <ele>476</ele>
        <time>2016-09-13T14:30:21Z</time>
      </trkpt>
      <trkpt lat="47.41736" lon="4.93521">
        <ele>474</ele>
        <time>2016-09-13T14:30:23Z</time>
      </trkpt>
      <trkpt lat="47.41743" lon="4.9353">
        <ele>475.4</ele>
        <time>2016-09-13T14:30:25Z</time>
      </trkpt>
      <trkpt lat="47.4173" lon="4.93534">
        <ele>474.9</ele>
        <time>2016-09-13T14:30:28Z</time>
      </trkpt>
      <trkpt lat="47.41716" lon="4.93538">
        <ele>474.3</ele>
        <time>2016-09-13T14:30:33Z</time>
      </trkpt>
      <trkpt lat="47.41725" lon="4.93537">
        <ele>474.8</ele>
        <time>2016-09-13T14:30:41Z</time>
      </trkpt>
      <trkpt lat="47.41721" lon="4.93549">
        <ele>475.8</ele>
        <time>2016-09-13T14:31:00Z</time>
      </trkpt>
      <trkpt lat="47.4171" lon="4.93557">
        <ele>475.8</ele>
        <time>2016-09-13T14:31:30Z</time>
      </trkpt>
      <trkpt lat="47.417" lon="4.93564">
        <ele>476</ele>
        <time>2016-09-13T14:31:34Z</time>
      </trkpt>
      <trkpt lat="47.41692" lon="4.93557">
        <ele>474.6</ele>
        <time>2016-09-13T14:31:37Z</time>
      </trkpt>
      <trkpt lat="47.41689" lon="4.93574">
        <ele>476.2</ele>
        <time>2016-09-13T14:31:45Z</time>
      </trkpt>
      <trkpt lat="47.41672" lon="4.9357">
        <ele>474.9</ele>
        <time>2016-09-13T14:31:53Z</time>
      </trkpt>
      <trkpt lat="47.41657" lon="4.93571">
        <ele>475.5</ele>
        <time>2016-09-13T14:31:55Z</time>
      </trkpt>
      <trkpt lat="47.41652" lon="4.93582">
        <ele>476.9</ele>
        <time>2016-09-13T14:32:00Z</time>
      </trkpt>
      <trkpt lat="47.41645" lon="4.93597">
        <ele>478.3</ele>
        <time>2016-09-13T14:32:02Z</time>
      </trkpt>
      <trkpt lat="47.41648" lon="4.9361">
        <ele>479</ele>
        <time>2016-09-13T14:32:09Z</time>
      </trkpt>
      <trkpt lat="47.41641" lon="4.93619">
        <ele>479.9</ele>
        <time>2016-09-13T14:32:28Z</time>
      </trkpt>
      <trkpt lat="47.41638" lon="4.93605">
        <ele>479.2</ele>
        <time>2016-09-13T14:32:33Z</time>
      </trkpt>
      <trkpt lat="47.41637" lon="4.9359">
        <ele>478.5</ele>
        <time>2016-09-13T14:32:35Z</time>
      </trkpt>
      <trkpt lat="47.41632" lon="4.93602">
        <ele>479.5</ele>
        <time>2016-09-13T14:32:42Z</time>
      </trkpt>
      <trkpt lat="47.41624" lon="4.9361">
        <ele>480.3</ele>
        <time>2016-09-13T14:33:11Z</time>
      </trkpt>
      <trkpt lat="47.41618" lon="4.93621">
        <ele>481.1</ele>
        <time>2016-09-13T14:33:15Z</time>
      </trkpt>
      <trkpt lat="47.41615" lon="4.93635">
        <ele>481.9</ele>
        <time>2016-09-13T14:33:18Z</time>
      </trkpt>
      <trkpt lat="47.4161" lon="4.93647">
        <ele>482.6</ele>
        <time>2016-09-13T14:33:26Z</time>
      </trkpt>
      <trkpt lat="47.41608" lon="4.93661">
        <ele>483.2</ele>
        <time>2016-09-13T14:33:34Z</time>
      </trkpt>
      <trkpt lat="47.41606" lon="4.93674">
        <ele>483.3</ele>
        <time>2016-09-13T14:34:25Z</time>
      </trkpt>
      <trkpt lat="47.41612" lon="4.93686">
        <ele>482.9</ele>
        <time>2016-09-13T14:34:34Z</time>
      </trkpt>
      <trkpt lat="47.41601" lon="4.93695">
        <ele>482.8</ele>
        <time>2016-09-13T14:36:36Z</time>
      </trkpt>
      <trkpt lat="47.41604" lon="4.93709">
        <ele>482.4</ele>
        <time>2016-09-13T14:36:42Z</time>
      </trkpt>
      <trkpt lat="47.416" lon="4.93722">
        <ele>482</ele>
        <time>2016-09-13T14:36:56Z</time>
      </trkpt>
      <trkpt lat="47.41594" lon="4.93734">
        <ele>481.7</ele>
        <time>2016-09-13T14:37:10Z</time>
      </trkpt>
      <trkpt lat="47.41585" lon="4.93739">
        <ele>481.4</ele>
        <time>2016-09-13T14:37:17Z</time>
      </trkpt>
      <trkpt lat="47.41593" lon="4.93732">
        <ele>481.7</ele>
        <time>2016-09-13T14:38:17Z</time>
      </trkpt>
      <trkpt lat="47.41596" lon="4.93718">
        <ele>482.1</ele>
        <time>2016-09-13T14:38:38Z</time>
      </trkpt>
      <trkpt lat="47.41597" lon="4.93703">
        <ele>482.6</ele>
        <time>2016-09-13T14:38:47Z</time>
      </trkpt>
      <trkpt lat="47.41598" lon="4.93689">
        <ele>483</ele>
        <time>2016-09-13T14:39:16Z</time>
      </trkpt>
      <trkpt lat="47.41601" lon="4.93675">
        <ele>483.4</ele>
        <time>2016-09-13T14:43:18Z</time>
      </trkpt>
      <trkpt lat="47.41592" lon="4.93682">
        <ele>483.3</ele>
        <time>2016-09-13T14:45:13Z</time>
      </trkpt>
      <trkpt lat="47.41597" lon="4.93694">
        <ele>482.9</ele>
        <time>2016-09-13T14:45:17Z</time>
      </trkpt>
      <trkpt lat="47.41592" lon="4.9371">
        <ele>482.4</ele>
        <time>2016-09-13T14:45:23Z</time>
      </trkpt>
      <trkpt lat="47.41591" lon="4.93724">
        <ele>481.9</ele>
        <time>2016-09-13T14:45:29Z</time>
      </trkpt>
      <trkpt lat="47.41586" lon="4.93735">
        <ele>481.6</ele>
        <time>2016-09-13T14:45:41Z</time>
      </trkpt>
      <trkpt lat="47.41583" lon="4.93749">
        <ele>481.1</ele>
        <time>2016-09-13T14:45:50Z</time>
      </trkpt>
      <trkpt lat="47.41575" lon="4.93756">
        <ele>481.6</ele>
        <time>2016-09-13T14:45:59Z</time>
      </trkpt>
      <trkpt lat="47.41568" lon="4.93765">
        <ele>482</ele>
        <time>2016-09-13T14:46:06Z</time>
      </trkpt>
      <trkpt lat="47.41559" lon="4.93763">
        <ele>482.5</ele>
        <time>2016-09-13T14:46:17Z</time>
      </trkpt>
      <trkpt lat="47.41549" lon="4.93767">
        <ele>483</ele>
        <time>2016-09-13T14:46:25Z</time>
      </trkpt>
      <trkpt lat="47.41538" lon="4.93766">
        <ele>483.6</ele>
        <time>2016-09-13T14:46:33Z</time>
      </trkpt>
      <trkpt lat="47.41529" lon="4.93769">
        <ele>484.1</ele>
        <time>2016-09-13T14:46:41Z</time>
      </trkpt>
      <trkpt lat="47.4152" lon="4.93762">
        <ele>484.6</ele>
        <time>2016-09-13T14:46:50Z</time>
      </trkpt>
      <trkpt lat="47.41512" lon="4.9377">
        <ele>484.9</ele>
        <time>2016-09-13T14:46:54Z</time>
      </trkpt>
      <trkpt lat="47.41501" lon="4.93776">
        <ele>485.3</ele>
        <time>2016-09-13T14:47:00Z</time>
      </trkpt>
      <trkpt lat="47.41491" lon="4.93774">
        <ele>485.4</ele>
        <time>2016-09-13T14:47:08Z</time>
      </trkpt>
      <trkpt lat="47.41486" lon="4.93761">
        <ele>485.8</ele>
        <time>2016-09-13T14:47:15Z</time>
      </trkpt>
      <trkpt lat="47.41477" lon="4.9376">
        <ele>485.8</ele>
        <time>2016-09-13T14:47:31Z</time>
      </trkpt>
      <trkpt lat="47.41467" lon="4.93757">
        <ele>485.8</ele>
        <time>2016-09-13T14:47:41Z</time>
      </trkpt>
      <trkpt lat="47.41457" lon="4.93755">
        <ele>485.9</ele>
        <time>2016-09-13T14:47:52Z</time>
      </trkpt>
      <trkpt lat="47.41447" lon="4.93758">
        <ele>485.8</ele>
        <time>2016-09-13T14:48:32Z</time>
      </trkpt>
      <trkpt lat="47.41436" lon="4.9376">
        <ele>485.8</ele>
        <time>2016-09-13T14:48:38Z</time>
      </trkpt>
      <trkpt lat="47.41427" lon="4.93767">
        <ele>485.6</ele>
        <time>2016-09-13T14:48:43Z</time>
      </trkpt>
      <trkpt lat="47.41419" lon="4.93771">
        <ele>485.5</ele>
        <time>2016-09-13T14:48:48Z</time>
      </trkpt>
      <trkpt lat="47.41409" lon="4.93781">
        <ele>485.1</ele>
        <time>2016-09-13T14:48:53Z</time>
      </trkpt>
      <trkpt lat="47.41402" lon="4.9379">
        <ele>484.8</ele>
        <time>2016-09-13T14:49:05Z</time>
      </trkpt>
      <trkpt lat="47.41393" lon="4.93788">
        <ele>484.7</ele>
        <time>2016-09-13T14:49:11Z</time>
      </trkpt>
      <trkpt lat="47.41385" lon="4.93797">
        <ele>484.3</ele>
        <time>2016-09-13T14:49:18Z</time>
      </trkpt>
      <trkpt lat="47.41376" lon="4.93793">
        <ele>484.2</ele>
        <time>2016-09-13T14:49:34Z</time>
      </trkpt>
      <trkpt lat="47.41367" lon="4.938">
        <ele>483.9</ele>
        <time>2016-09-13T14:49:43Z</time>
      </trkpt>
      <trkpt lat="47.41359" lon="4.93806">
        <ele>483.5</ele>
        <time>2016-09-13T14:49:50Z</time>
      </trkpt>
      <trkpt lat="47.4135" lon="4.93811">
        <ele>483.2</ele>
        <time>2016-09-13T14:50:01Z</time>
      </trkpt>
      <trkpt lat="47.4134" lon="4.93816">
        <ele>482.8</ele>
        <time>2016-09-13T14:50:10Z</time>
      </trkpt>
      <trkpt lat="47.41333" lon="4.93825">
        <ele>482.3</ele>
        <time>2016-09-13T14:50:22Z</time>
      </trkpt>
      <trkpt lat="47.41325" lon="4.93832">
        <ele>482.1</ele>
        <time>2016-09-13T14:50:31Z</time>
      </trkpt>
      <trkpt lat="47.41317" lon="4.93841">
        <ele>482.4</ele>
        <time>2016-09-13T14:50:40Z</time>
      </trkpt>
      <trkpt lat="47.41311" lon="4.93851">
        <ele>482.7</ele>
        <time>2016-09-13T14:50:51Z</time>
      </trkpt>
      <trkpt lat="47.41306" lon="4.93865">
        <ele>483.3</ele>
        <time>2016-09-13T14:51:01Z</time>
      </trkpt>
      <trkpt lat="47.413" lon="4.93877">
        <ele>483.9</ele>
        <time>2016-09-13T14:51:10Z</time>
      </trkpt>
      <trkpt lat="47.41294" lon="4.93886">
        <ele>484.6</ele>
        <time>2016-09-13T14:51:19Z</time>
      </trkpt>
      <trkpt lat="47.41284" lon="4.93883">
        <ele>484.9</ele>
        <time>2016-09-13T14:51:24Z</time>
      </trkpt>
      <trkpt lat="47.41274" lon="4.93878">
        <ele>485.1</ele>
        <time>2016-09-13T14:51:32Z</time>
      </trkpt>
      <trkpt lat="47.41264" lon="4.9388">
        <ele>485.6</ele>
        <time>2016-09-13T14:51:41Z</time>
      </trkpt>
      <trkpt lat="47.41255" lon="4.93872">
        <ele>485.5</ele>
        <time>2016-09-13T14:51:49Z</time>
      </trkpt>
      <trkpt lat="47.41246" lon="4.93872">
        <ele>486.1</ele>
        <time>2016-09-13T14:52:05Z</time>
      </trkpt>
      <trkpt lat="47.41239" lon="4.93864">
        <ele>486.2</ele>
        <time>2016-09-13T14:52:20Z</time>
      </trkpt>
      <trkpt lat="47.41226" lon="4.93868">
        <ele>487.5</ele>
        <time>2016-09-13T14:53:12Z</time>
      </trkpt>
      <trkpt lat="47.41219" lon="4.93879">
        <ele>488.8</ele>
        <time>2016-09-13T14:53:19Z</time>
      </trkpt>
      <trkpt lat="47.4121" lon="4.9388">
        <ele>489.8</ele>
        <time>2016-09-13T14:53:32Z</time>
      </trkpt>
      <trkpt lat="47.41201" lon="4.93884">
        <ele>490.9</ele>
        <time>2016-09-13T14:53:43Z</time>
      </trkpt>
      <trkpt lat="47.41193" lon="4.93894">
        <ele>492.4</ele>
        <time>2016-09-13T14:53:49Z</time>
      </trkpt>
      <trkpt lat="47.41186" lon="4.93902">
        <ele>493.7</ele>
        <time>2016-09-13T14:53:59Z</time>
      </trkpt>
      <trkpt lat="47.41177" lon="4.93903">
        <ele>494.7</ele>
        <time>2016-09-13T14:54:07Z</time>
      </trkpt>
      <trkpt lat="47.4117" lon="4.93914">
        <ele>496.3</ele>
        <time>2016-09-13T14:54:18Z</time>
      </trkpt>
      <trkpt lat="47.4116" lon="4.93913">
        <ele>497.3</ele>
        <time>2016-09-13T14:54:32Z</time>
      </trkpt>
      <trkpt lat="47.4115" lon="4.93914">
        <ele>498.4</ele>
        <time>2016-09-13T14:54:44Z</time>
      </trkpt>
      <trkpt lat="47.41137" lon="4.93914">
        <ele>499.6</ele>
        <time>2016-09-13T14:54:53Z</time>
      </trkpt>
      <trkpt lat="47.41128" lon="4.93912">
        <ele>500.3</ele>
        <time>2016-09-13T14:55:01Z</time>
      </trkpt>
      <trkpt lat="47.4112" lon="4.93917">
        <ele>501.5</ele>
        <time>2016-09-13T14:55:09Z</time>
      </trkpt>
      <trkpt lat="47.41112" lon="4.93924">
        <ele>502.8</ele>
        <time>2016-09-13T14:55:19Z</time>
      </trkpt>
      <trkpt lat="47.41104" lon="4.93933">
        <ele>504.3</ele>
        <time>2016-09-13T14:55:30Z</time>
      </trkpt>
      <trkpt lat="47.41095" lon="4.93936">
        <ele>505.4</ele>
        <time>2016-09-13T14:55:39Z</time>
      </trkpt>
      <trkpt lat="47.41087" lon="4.93944">
        <ele>506.5</ele>
        <time>2016-09-13T14:55:51Z</time>
      </trkpt>
      <trkpt lat="47.41078" lon="4.93945">
        <ele>507.4</ele>
        <time>2016-09-13T14:55:58Z</time>
      </trkpt>
      <trkpt lat="47.41069" lon="4.93947">
        <ele>508.1</ele>
        <time>2016-09-13T14:56:07Z</time>
      </trkpt>
      <trkpt lat="47.4106" lon="4.9395">
        <ele>508.8</ele>
        <time>2016-09-13T14:56:16Z</time>
      </trkpt>
      <trkpt lat="47.41051" lon="4.93954">
        <ele>509.5</ele>
        <time>2016-09-13T14:56:27Z</time>
      </trkpt>
      <trkpt lat="47.41041" lon="4.93952">
        <ele>510</ele>
        <time>2016-09-13T14:56:33Z</time>
      </trkpt>
      <trkpt lat="47.41032" lon="4.93955">
        <ele>510.6</ele>
        <time>2016-09-13T14:56:42Z</time>
      </trkpt>
      <trkpt lat="47.41023" lon="4.9396">
        <ele>511.3</ele>
        <time>2016-09-13T14:56:52Z</time>
      </trkpt>
      <trkpt lat="47.41014" lon="4.93964">
        <ele>511.9</ele>
        <time>2016-09-13T14:57:02Z</time>
      </trkpt>
      <trkpt lat="47.41006" lon="4.93971">
        <ele>512.4</ele>
        <time>2016-09-13T14:57:11Z</time>
      </trkpt>
      <trkpt lat="47.40997" lon="4.93976">
        <ele>512.8</ele>
        <time>2016-09-13T14:57:20Z</time>
      </trkpt>
      <trkpt lat="47.4099" lon="4.93984">
        <ele>513.2</ele>
        <time>2016-09-13T14:57:24Z</time>
      </trkpt>
      <trkpt lat="47.4098" lon="4.93988">
        <ele>513.5</ele>
        <time>2016-09-13T14:57:35Z</time>
      </trkpt>
      <trkpt lat="47.40971" lon="4.93989">
        <ele>513.9</ele>
        <time>2016-09-13T14:57:46Z</time>
      </trkpt>
      <trkpt lat="47.40964" lon="4.93999">
        <ele>514.3</ele>
        <time>2016-09-13T14:57:53Z</time>
      </trkpt>
      <trkpt lat="47.40956" lon="4.94004">
        <ele>514.6</ele>
        <time>2016-09-13T14:58:00Z</time>
      </trkpt>
      <trkpt lat="47.40946" lon="4.94006">
        <ele>514.9</ele>
        <time>2016-09-13T14:58:07Z</time>
      </trkpt>
      <trkpt lat="47.40938" lon="4.94013">
        <ele>515</ele>
        <time>2016-09-13T14:58:14Z</time>
      </trkpt>
      <trkpt lat="47.40929" lon="4.94019">
        <ele>515.2</ele>
        <time>2016-09-13T14:58:23Z</time>
      </trkpt>
      <trkpt lat="47.4092" lon="4.94025">
        <ele>515.3</ele>
        <time>2016-09-13T14:58:35Z</time>
      </trkpt>
      <trkpt lat="47.4091" lon="4.94029">
        <ele>515.4</ele>
        <time>2016-09-13T14:58:55Z</time>
      </trkpt>
      <trkpt lat="47.40903" lon="4.94038">
        <ele>515.3</ele>
        <time>2016-09-13T14:59:02Z</time>
      </trkpt>
      <trkpt lat="47.40894" lon="4.94037">
        <ele>515.5</ele>
        <time>2016-09-13T14:59:14Z</time>
      </trkpt>
      <trkpt lat="47.40888" lon="4.94048">
        <ele>515.4</ele>
        <time>2016-09-13T14:59:36Z</time>
      </trkpt>
      <trkpt lat="47.40881" lon="4.94056">
        <ele>515.3</ele>
        <time>2016-09-13T14:59:53Z</time>
      </trkpt>
      <trkpt lat="47.40878" lon="4.9407">
        <ele>514.8</ele>
        <time>2016-09-13T15:00:11Z</time>
      </trkpt>
      <trkpt lat="47.40873" lon="4.94083">
        <ele>514.6</ele>
        <time>2016-09-13T15:00:16Z</time>
      </trkpt>
      <trkpt lat="47.40866" lon="4.94092">
        <ele>514.4</ele>
        <time>2016-09-13T15:00:22Z</time>
      </trkpt>
      <trkpt lat="47.40863" lon="4.94106">
        <ele>514</ele>
        <time>2016-09-13T15:00:31Z</time>
      </trkpt>
      <trkpt lat="47.40859" lon="4.94119">
        <ele>513.7</ele>
        <time>2016-09-13T15:00:37Z</time>
      </trkpt>
      <trkpt lat="47.40853" lon="4.94131">
        <ele>513.5</ele>
        <time>2016-09-13T15:00:44Z</time>
      </trkpt>
      <trkpt lat="47.40848" lon="4.94145">
        <ele>513.2</ele>
        <time>2016-09-13T15:00:51Z</time>
      </trkpt>
      <trkpt lat="47.40841" lon="4.94154">
        <ele>513.2</ele>
        <time>2016-09-13T15:01:00Z</time>
      </trkpt>
      <trkpt lat="47.40836" lon="4.94166">
        <ele>513</ele>
        <time>2016-09-13T15:01:04Z</time>
      </trkpt>
      <trkpt lat="47.4083" lon="4.94176">
        <ele>512.7</ele>
        <time>2016-09-13T15:01:10Z</time>
      </trkpt>
      <trkpt lat="47.40823" lon="4.94187">
        <ele>512.5</ele>
        <time>2016-09-13T15:01:16Z</time>
      </trkpt>
      <trkpt lat="47.40817" lon="4.94199">
        <ele>512.3</ele>
        <time>2016-09-13T15:01:23Z</time>
      </trkpt>
      <trkpt lat="47.4081" lon="4.94209">
        <ele>512.1</ele>
        <time>2016-09-13T15:01:30Z</time>
      </trkpt>
      <trkpt lat="47.40804" lon="4.94223">
        <ele>511.7</ele>
        <time>2016-09-13T15:01:43Z</time>
      </trkpt>
      <trkpt lat="47.40795" lon="4.94227">
        <ele>511.8</ele>
        <time>2016-09-13T15:01:59Z</time>
      </trkpt>
      <trkpt lat="47.40788" lon="4.94241">
        <ele>511.4</ele>
        <time>2016-09-13T15:02:37Z</time>
      </trkpt>
      <trkpt lat="47.40782" lon="4.94254">
        <ele>511.1</ele>
        <time>2016-09-13T15:02:40Z</time>
      </trkpt>
      <trkpt lat="47.40775" lon="4.94263">
        <ele>511</ele>
        <time>2016-09-13T15:02:47Z</time>
      </trkpt>
      <trkpt lat="47.40771" lon="4.94278">
        <ele>510.6</ele>
        <time>2016-09-13T15:02:53Z</time>
      </trkpt>
      <trkpt lat="47.40761" lon="4.94281">
        <ele>510.7</ele>
        <time>2016-09-13T15:03:00Z</time>
      </trkpt>
      <trkpt lat="47.40753" lon="4.94291">
        <ele>510.5</ele>
        <time>2016-09-13T15:03:09Z</time>
      </trkpt>
      <trkpt lat="47.40748" lon="4.94302">
        <ele>510.2</ele>
        <time>2016-09-13T15:03:18Z</time>
      </trkpt>
      <trkpt lat="47.4074" lon="4.94309">
        <ele>510.2</ele>
        <time>2016-09-13T15:03:23Z</time>
      </trkpt>
      <trkpt lat="47.40732" lon="4.94316">
        <ele>510.4</ele>
        <time>2016-09-13T15:03:34Z</time>
      </trkpt>
      <trkpt lat="47.40726" lon="4.9433">
        <ele>510.2</ele>
        <time>2016-09-13T15:03:42Z</time>
      </trkpt>
      <trkpt lat="47.4072" lon="4.94343">
        <ele>510.3</ele>
        <time>2016-09-13T15:03:48Z</time>
      </trkpt>
      <trkpt lat="47.40723" lon="4.94361">
        <ele>509.9</ele>
        <time>2016-09-13T15:03:55Z</time>
      </trkpt>
      <trkpt lat="47.40714" lon="4.94356">
        <ele>510.4</ele>
        <time>2016-09-13T15:04:03Z</time>
      </trkpt>
      <trkpt lat="47.40709" lon="4.94369">
        <ele>510.6</ele>
        <time>2016-09-13T15:04:12Z</time>
      </trkpt>
      <trkpt lat="47.40699" lon="4.94363">
        <ele>511.2</ele>
        <time>2016-09-13T15:04:18Z</time>
      </trkpt>
      <trkpt lat="47.40703" lon="4.94375">
        <ele>510.8</ele>
        <time>2016-09-13T15:04:30Z</time>
      </trkpt>
      <trkpt lat="47.40695" lon="4.94382">
        <ele>511.2</ele>
        <time>2016-09-13T15:04:37Z</time>
      </trkpt>
      <trkpt lat="47.40688" lon="4.94391">
        <ele>511.6</ele>
        <time>2016-09-13T15:04:49Z</time>
      </trkpt>
      <trkpt lat="47.40692" lon="4.94406">
        <ele>511.2</ele>
        <time>2016-09-13T15:04:55Z</time>
      </trkpt>
      <trkpt lat="47.40694" lon="4.94419">
        <ele>511</ele>
        <time>2016-09-13T15:05:35Z</time>
      </trkpt>
      <trkpt lat="47.40694" lon="4.94434">
        <ele>511</ele>
        <time>2016-09-13T15:06:11Z</time>
      </trkpt>
      <trkpt lat="47.40694" lon="4.94438">
        <ele>511</ele>
        <time>2016-09-13T15:06:27Z</time>
      </trkpt>
    </trkseg>
  </trk>
</gpx>